<?xml version="1.0" encoding="UTF-8" standalone="no" ?>
<gpx xmlns="http://www.topografix.com/GPX/1/1" xmlns:xsi="http://www.w3.org/2001/XMLSchema-instance" xsi:schemaLocation="http://www.topografix.com/GPX/1/1 http://www.topografix.com/GPX/1/1/gpx.xsd" version="1.1" creator="VisuGPX - https://www.visugpx.com">
  <metadata>
    <name>2021-01-26 Herrennberg puis les crêtes</name>
    <desc><![CDATA[File with points/tracks from Locus Map/3.50.1]]></desc>
  </metadata>
  <trk>
    <name><![CDATA[2021-01-26 Herrennberg puis les crêtes]]></name>
    <extensions>
      <line xmlns="http://www.topografix.com/GPX/gpx_style/0/2">
        <color>0000FF</color>
        <opacity>0.59</opacity>
        <width>6.0</width>
      </line>
    </extensions>
    <trkseg>
      <trkpt lat="48.00487" lon="7.01673">
        <ele>517.53</ele>
        <time>2021-01-26T08:37:32.000Z</time>
      </trkpt>
      <trkpt lat="48.00495" lon="7.01664">
        <ele>544.01</ele>
        <time>2021-01-26T08:37:48.000Z</time>
      </trkpt>
      <trkpt lat="48.00525" lon="7.0167">
        <ele>548.45</ele>
        <time>2021-01-26T08:37:53.000Z</time>
      </trkpt>
      <trkpt lat="48.00503" lon="7.01663">
        <ele>553.66</ele>
        <time>2021-01-26T08:37:58.000Z</time>
      </trkpt>
      <trkpt lat="48.00495" lon="7.01669">
        <ele>556.64</ele>
        <time>2021-01-26T08:38:06.000Z</time>
      </trkpt>
      <trkpt lat="48.00488" lon="7.01659">
        <ele>545.84</ele>
        <time>2021-01-26T08:38:24.000Z</time>
      </trkpt>
      <trkpt lat="48.00484" lon="7.01647">
        <ele>542.87</ele>
        <time>2021-01-26T08:38:30.000Z</time>
      </trkpt>
      <trkpt lat="48.00484" lon="7.01631">
        <ele>539.64</ele>
        <time>2021-01-26T08:39:27.000Z</time>
      </trkpt>
      <trkpt lat="48.00477" lon="7.01621">
        <ele>537.53</ele>
        <time>2021-01-26T08:39:37.000Z</time>
      </trkpt>
      <trkpt lat="48.00468" lon="7.01624">
        <ele>535.77</ele>
        <time>2021-01-26T08:39:45.000Z</time>
      </trkpt>
      <trkpt lat="48.00459" lon="7.01623">
        <ele>534.85</ele>
        <time>2021-01-26T08:39:56.000Z</time>
      </trkpt>
      <trkpt lat="48.00449" lon="7.01617">
        <ele>535.32</ele>
        <time>2021-01-26T08:40:09.000Z</time>
      </trkpt>
      <trkpt lat="48.0044" lon="7.01613">
        <ele>537.18</ele>
        <time>2021-01-26T08:40:16.000Z</time>
      </trkpt>
      <trkpt lat="48.00436" lon="7.016">
        <ele>538.83</ele>
        <time>2021-01-26T08:40:27.000Z</time>
      </trkpt>
      <trkpt lat="48.00432" lon="7.01587">
        <ele>539.28</ele>
        <time>2021-01-26T08:40:37.000Z</time>
      </trkpt>
      <trkpt lat="48.00427" lon="7.01575">
        <ele>540.22</ele>
        <time>2021-01-26T08:40:49.000Z</time>
      </trkpt>
      <trkpt lat="48.00422" lon="7.01563">
        <ele>541.83</ele>
        <time>2021-01-26T08:41:01.000Z</time>
      </trkpt>
      <trkpt lat="48.00416" lon="7.01552">
        <ele>543.12</ele>
        <time>2021-01-26T08:41:12.000Z</time>
      </trkpt>
      <trkpt lat="48.00411" lon="7.0154">
        <ele>544.33</ele>
        <time>2021-01-26T08:41:22.000Z</time>
      </trkpt>
      <trkpt lat="48.00403" lon="7.01532">
        <ele>545.43</ele>
        <time>2021-01-26T08:41:32.000Z</time>
      </trkpt>
      <trkpt lat="48.00395" lon="7.01523">
        <ele>546.28</ele>
        <time>2021-01-26T08:41:43.000Z</time>
      </trkpt>
      <trkpt lat="48.00387" lon="7.01516">
        <ele>548.4</ele>
        <time>2021-01-26T08:41:53.000Z</time>
      </trkpt>
      <trkpt lat="48.00382" lon="7.01504">
        <ele>551.19</ele>
        <time>2021-01-26T08:42:05.000Z</time>
      </trkpt>
      <trkpt lat="48.00386" lon="7.0149">
        <ele>551.73</ele>
        <time>2021-01-26T08:42:38.000Z</time>
      </trkpt>
      <trkpt lat="48.00383" lon="7.01477">
        <ele>552.43</ele>
        <time>2021-01-26T08:42:46.000Z</time>
      </trkpt>
      <trkpt lat="48.00376" lon="7.01469">
        <ele>552.93</ele>
        <time>2021-01-26T08:42:55.000Z</time>
      </trkpt>
      <trkpt lat="48.0037" lon="7.01458">
        <ele>554.13</ele>
        <time>2021-01-26T08:43:10.000Z</time>
      </trkpt>
      <trkpt lat="48.00362" lon="7.01451">
        <ele>554.33</ele>
        <time>2021-01-26T08:43:20.000Z</time>
      </trkpt>
      <trkpt lat="48.00354" lon="7.01443">
        <ele>555.13</ele>
        <time>2021-01-26T08:43:30.000Z</time>
      </trkpt>
      <trkpt lat="48.00348" lon="7.01433">
        <ele>555.83</ele>
        <time>2021-01-26T08:43:41.000Z</time>
      </trkpt>
      <trkpt lat="48.0034" lon="7.01425">
        <ele>556.85</ele>
        <time>2021-01-26T08:43:52.000Z</time>
      </trkpt>
      <trkpt lat="48.00333" lon="7.01415">
        <ele>557.65</ele>
        <time>2021-01-26T08:44:02.000Z</time>
      </trkpt>
      <trkpt lat="48.00325" lon="7.01407">
        <ele>558.52</ele>
        <time>2021-01-26T08:44:10.000Z</time>
      </trkpt>
      <trkpt lat="48.00318" lon="7.01397">
        <ele>559.85</ele>
        <time>2021-01-26T08:44:20.000Z</time>
      </trkpt>
      <trkpt lat="48.00311" lon="7.01388">
        <ele>560.23</ele>
        <time>2021-01-26T08:44:30.000Z</time>
      </trkpt>
      <trkpt lat="48.00306" lon="7.01375">
        <ele>561.49</ele>
        <time>2021-01-26T08:44:40.000Z</time>
      </trkpt>
      <trkpt lat="48.00299" lon="7.01365">
        <ele>562.78</ele>
        <time>2021-01-26T08:44:50.000Z</time>
      </trkpt>
      <trkpt lat="48.00295" lon="7.01353">
        <ele>564</ele>
        <time>2021-01-26T08:44:59.000Z</time>
      </trkpt>
      <trkpt lat="48.0029" lon="7.01341">
        <ele>565.1</ele>
        <time>2021-01-26T08:45:10.000Z</time>
      </trkpt>
      <trkpt lat="48.00289" lon="7.01327">
        <ele>565.61</ele>
        <time>2021-01-26T08:45:19.000Z</time>
      </trkpt>
      <trkpt lat="48.00288" lon="7.01313">
        <ele>566.87</ele>
        <time>2021-01-26T08:45:30.000Z</time>
      </trkpt>
      <trkpt lat="48.00288" lon="7.01299">
        <ele>565.16</ele>
        <time>2021-01-26T08:45:39.000Z</time>
      </trkpt>
      <trkpt lat="48.00284" lon="7.01285">
        <ele>562.61</ele>
        <time>2021-01-26T08:45:47.000Z</time>
      </trkpt>
      <trkpt lat="48.0028" lon="7.01273">
        <ele>560.53</ele>
        <time>2021-01-26T08:45:57.000Z</time>
      </trkpt>
      <trkpt lat="48.00274" lon="7.01262">
        <ele>558.91</ele>
        <time>2021-01-26T08:46:06.000Z</time>
      </trkpt>
      <trkpt lat="48.00267" lon="7.01253">
        <ele>556.63</ele>
        <time>2021-01-26T08:46:18.000Z</time>
      </trkpt>
      <trkpt lat="48.00264" lon="7.01239">
        <ele>554.46</ele>
        <time>2021-01-26T08:46:29.000Z</time>
      </trkpt>
      <trkpt lat="48.00269" lon="7.01227">
        <ele>551.95</ele>
        <time>2021-01-26T08:46:41.000Z</time>
      </trkpt>
      <trkpt lat="48.00266" lon="7.01213">
        <ele>548.85</ele>
        <time>2021-01-26T08:46:56.000Z</time>
      </trkpt>
      <trkpt lat="48.00261" lon="7.012">
        <ele>546.23</ele>
        <time>2021-01-26T08:47:07.000Z</time>
      </trkpt>
      <trkpt lat="48.00256" lon="7.01188">
        <ele>544.53</ele>
        <time>2021-01-26T08:47:15.000Z</time>
      </trkpt>
      <trkpt lat="48.00254" lon="7.01174">
        <ele>541.23</ele>
        <time>2021-01-26T08:47:31.000Z</time>
      </trkpt>
      <trkpt lat="48.00252" lon="7.0116">
        <ele>539.12</ele>
        <time>2021-01-26T08:47:41.000Z</time>
      </trkpt>
      <trkpt lat="48.00252" lon="7.01146">
        <ele>536.83</ele>
        <time>2021-01-26T08:47:53.000Z</time>
      </trkpt>
      <trkpt lat="48.00255" lon="7.01132">
        <ele>534.43</ele>
        <time>2021-01-26T08:48:06.000Z</time>
      </trkpt>
      <trkpt lat="48.00259" lon="7.01121">
        <ele>532.5</ele>
        <time>2021-01-26T08:48:15.000Z</time>
      </trkpt>
      <trkpt lat="48.00252" lon="7.01108">
        <ele>531.67</ele>
        <time>2021-01-26T08:48:22.000Z</time>
      </trkpt>
      <trkpt lat="48.00247" lon="7.01095">
        <ele>530.82</ele>
        <time>2021-01-26T08:48:29.000Z</time>
      </trkpt>
      <trkpt lat="48.00243" lon="7.01082">
        <ele>529.42</ele>
        <time>2021-01-26T08:48:38.000Z</time>
      </trkpt>
      <trkpt lat="48.00235" lon="7.01071">
        <ele>528.79</ele>
        <time>2021-01-26T08:48:45.000Z</time>
      </trkpt>
      <trkpt lat="48.00229" lon="7.01058">
        <ele>527.67</ele>
        <time>2021-01-26T08:48:54.000Z</time>
      </trkpt>
      <trkpt lat="48.00229" lon="7.01043">
        <ele>525.39</ele>
        <time>2021-01-26T08:49:07.000Z</time>
      </trkpt>
      <trkpt lat="48.00223" lon="7.01033">
        <ele>524.92</ele>
        <time>2021-01-26T08:49:13.000Z</time>
      </trkpt>
      <trkpt lat="48.00219" lon="7.01018">
        <ele>524.07</ele>
        <time>2021-01-26T08:49:26.000Z</time>
      </trkpt>
      <trkpt lat="48.00214" lon="7.01006">
        <ele>523.97</ele>
        <time>2021-01-26T08:49:33.000Z</time>
      </trkpt>
      <trkpt lat="48.00214" lon="7.00992">
        <ele>524.26</ele>
        <time>2021-01-26T08:49:44.000Z</time>
      </trkpt>
      <trkpt lat="48.0021" lon="7.00979">
        <ele>523.66</ele>
        <time>2021-01-26T08:49:58.000Z</time>
      </trkpt>
      <trkpt lat="48.00209" lon="7.00964">
        <ele>524.36</ele>
        <time>2021-01-26T08:50:07.000Z</time>
      </trkpt>
      <trkpt lat="48.00212" lon="7.00951">
        <ele>525.33</ele>
        <time>2021-01-26T08:50:25.000Z</time>
      </trkpt>
      <trkpt lat="48.0021" lon="7.00938">
        <ele>526.13</ele>
        <time>2021-01-26T08:50:34.000Z</time>
      </trkpt>
      <trkpt lat="48.00208" lon="7.00923">
        <ele>527.03</ele>
        <time>2021-01-26T08:50:50.000Z</time>
      </trkpt>
      <trkpt lat="48.002" lon="7.00911">
        <ele>528.07</ele>
        <time>2021-01-26T08:50:57.000Z</time>
      </trkpt>
      <trkpt lat="48.00193" lon="7.00901">
        <ele>528.93</ele>
        <time>2021-01-26T08:51:03.000Z</time>
      </trkpt>
      <trkpt lat="48.0019" lon="7.00888">
        <ele>530.03</ele>
        <time>2021-01-26T08:51:12.000Z</time>
      </trkpt>
      <trkpt lat="48.00186" lon="7.00876">
        <ele>531.02</ele>
        <time>2021-01-26T08:51:20.000Z</time>
      </trkpt>
      <trkpt lat="48.0019" lon="7.00865">
        <ele>531.14</ele>
        <time>2021-01-26T08:51:35.000Z</time>
      </trkpt>
      <trkpt lat="48.00194" lon="7.00852">
        <ele>532.2</ele>
        <time>2021-01-26T08:51:44.000Z</time>
      </trkpt>
      <trkpt lat="48.00189" lon="7.00838">
        <ele>533.39</ele>
        <time>2021-01-26T08:51:51.000Z</time>
      </trkpt>
      <trkpt lat="48.00184" lon="7.00828">
        <ele>534.7</ele>
        <time>2021-01-26T08:51:58.000Z</time>
      </trkpt>
      <trkpt lat="48.00178" lon="7.00815">
        <ele>536.41</ele>
        <time>2021-01-26T08:52:08.000Z</time>
      </trkpt>
      <trkpt lat="48.00171" lon="7.00805">
        <ele>536.24</ele>
        <time>2021-01-26T08:52:19.000Z</time>
      </trkpt>
      <trkpt lat="48.00163" lon="7.00796">
        <ele>536.34</ele>
        <time>2021-01-26T08:52:25.000Z</time>
      </trkpt>
      <trkpt lat="48.00156" lon="7.00787">
        <ele>537.09</ele>
        <time>2021-01-26T08:52:31.000Z</time>
      </trkpt>
      <trkpt lat="48.00149" lon="7.00774">
        <ele>537.77</ele>
        <time>2021-01-26T08:52:49.000Z</time>
      </trkpt>
      <trkpt lat="48.00142" lon="7.00766">
        <ele>537.27</ele>
        <time>2021-01-26T08:53:00.000Z</time>
      </trkpt>
      <trkpt lat="48.00135" lon="7.00758">
        <ele>537.57</ele>
        <time>2021-01-26T08:53:19.000Z</time>
      </trkpt>
      <trkpt lat="48.00127" lon="7.00748">
        <ele>542.32</ele>
        <time>2021-01-26T08:53:28.000Z</time>
      </trkpt>
      <trkpt lat="48.00119" lon="7.00741">
        <ele>544.79</ele>
        <time>2021-01-26T08:53:33.000Z</time>
      </trkpt>
      <trkpt lat="48.00112" lon="7.0073">
        <ele>547.54</ele>
        <time>2021-01-26T08:53:39.000Z</time>
      </trkpt>
      <trkpt lat="48.00102" lon="7.0072">
        <ele>550.35</ele>
        <time>2021-01-26T08:53:45.000Z</time>
      </trkpt>
      <trkpt lat="48.00097" lon="7.00708">
        <ele>556.94</ele>
        <time>2021-01-26T08:53:53.000Z</time>
      </trkpt>
      <trkpt lat="48.00091" lon="7.00697">
        <ele>561.48</ele>
        <time>2021-01-26T08:54:06.000Z</time>
      </trkpt>
      <trkpt lat="48.00083" lon="7.00691">
        <ele>561.45</ele>
        <time>2021-01-26T08:54:13.000Z</time>
      </trkpt>
      <trkpt lat="48.00075" lon="7.00682">
        <ele>561.83</ele>
        <time>2021-01-26T08:54:21.000Z</time>
      </trkpt>
      <trkpt lat="48.00071" lon="7.0067">
        <ele>564</ele>
        <time>2021-01-26T08:54:34.000Z</time>
      </trkpt>
      <trkpt lat="48.00062" lon="7.00666">
        <ele>561.91</ele>
        <time>2021-01-26T08:54:42.000Z</time>
      </trkpt>
      <trkpt lat="48.00054" lon="7.00658">
        <ele>559.6</ele>
        <time>2021-01-26T08:54:52.000Z</time>
      </trkpt>
      <trkpt lat="48.00047" lon="7.00648">
        <ele>561.2</ele>
        <time>2021-01-26T08:55:04.000Z</time>
      </trkpt>
      <trkpt lat="48.00042" lon="7.00636">
        <ele>562.98</ele>
        <time>2021-01-26T08:55:16.000Z</time>
      </trkpt>
      <trkpt lat="48.00039" lon="7.00623">
        <ele>563.88</ele>
        <time>2021-01-26T08:55:29.000Z</time>
      </trkpt>
      <trkpt lat="48.00033" lon="7.00612">
        <ele>563.96</ele>
        <time>2021-01-26T08:55:38.000Z</time>
      </trkpt>
      <trkpt lat="48.00031" lon="7.00598">
        <ele>564.43</ele>
        <time>2021-01-26T08:55:50.000Z</time>
      </trkpt>
      <trkpt lat="48.00026" lon="7.00585">
        <ele>564.55</ele>
        <time>2021-01-26T08:56:02.000Z</time>
      </trkpt>
      <trkpt lat="48.00023" lon="7.00572">
        <ele>563.95</ele>
        <time>2021-01-26T08:56:16.000Z</time>
      </trkpt>
      <trkpt lat="48.00018" lon="7.00559">
        <ele>564.39</ele>
        <time>2021-01-26T08:56:27.000Z</time>
      </trkpt>
      <trkpt lat="48.00012" lon="7.00548">
        <ele>563.89</ele>
        <time>2021-01-26T08:56:36.000Z</time>
      </trkpt>
      <trkpt lat="48.00007" lon="7.00536">
        <ele>564.07</ele>
        <time>2021-01-26T08:56:45.000Z</time>
      </trkpt>
      <trkpt lat="48.00003" lon="7.00522">
        <ele>564.84</ele>
        <time>2021-01-26T08:57:00.000Z</time>
      </trkpt>
      <trkpt lat="48" lon="7.00509">
        <ele>565.25</ele>
        <time>2021-01-26T08:57:11.000Z</time>
      </trkpt>
      <trkpt lat="47.99995" lon="7.00497">
        <ele>564.99</ele>
        <time>2021-01-26T08:57:21.000Z</time>
      </trkpt>
      <trkpt lat="47.99988" lon="7.00487">
        <ele>563.99</ele>
        <time>2021-01-26T08:57:30.000Z</time>
      </trkpt>
      <trkpt lat="47.99983" lon="7.00476">
        <ele>565.35</ele>
        <time>2021-01-26T08:57:42.000Z</time>
      </trkpt>
      <trkpt lat="47.99984" lon="7.00461">
        <ele>570.2</ele>
        <time>2021-01-26T08:57:53.000Z</time>
      </trkpt>
      <trkpt lat="47.99982" lon="7.00448">
        <ele>571.33</ele>
        <time>2021-01-26T08:58:00.000Z</time>
      </trkpt>
      <trkpt lat="47.99979" lon="7.00436">
        <ele>571.56</ele>
        <time>2021-01-26T08:58:09.000Z</time>
      </trkpt>
      <trkpt lat="47.99987" lon="7.00425">
        <ele>572.34</ele>
        <time>2021-01-26T08:58:29.000Z</time>
      </trkpt>
      <trkpt lat="47.99996" lon="7.00424">
        <ele>574.86</ele>
        <time>2021-01-26T08:58:34.000Z</time>
      </trkpt>
      <trkpt lat="48.00011" lon="7.00422">
        <ele>579.23</ele>
        <time>2021-01-26T08:58:44.000Z</time>
      </trkpt>
      <trkpt lat="48.00006" lon="7.00406">
        <ele>590.83</ele>
        <time>2021-01-26T09:00:23.000Z</time>
      </trkpt>
      <trkpt lat="47.99995" lon="7.00399">
        <ele>594.51</ele>
        <time>2021-01-26T09:01:34.000Z</time>
      </trkpt>
      <trkpt lat="47.99986" lon="7.00397">
        <ele>593.06</ele>
        <time>2021-01-26T09:03:06.000Z</time>
      </trkpt>
      <trkpt lat="47.99978" lon="7.00393">
        <ele>589.28</ele>
        <time>2021-01-26T09:03:18.000Z</time>
      </trkpt>
      <trkpt lat="47.9997" lon="7.00387">
        <ele>585.56</ele>
        <time>2021-01-26T09:03:30.000Z</time>
      </trkpt>
      <trkpt lat="47.99961" lon="7.0038">
        <ele>583.16</ele>
        <time>2021-01-26T09:03:38.000Z</time>
      </trkpt>
      <trkpt lat="47.99952" lon="7.00374">
        <ele>580.86</ele>
        <time>2021-01-26T09:03:46.000Z</time>
      </trkpt>
      <trkpt lat="47.99944" lon="7.00367">
        <ele>577.56</ele>
        <time>2021-01-26T09:03:57.000Z</time>
      </trkpt>
      <trkpt lat="47.99936" lon="7.00361">
        <ele>574.76</ele>
        <time>2021-01-26T09:04:06.000Z</time>
      </trkpt>
      <trkpt lat="47.99927" lon="7.00354">
        <ele>572.17</ele>
        <time>2021-01-26T09:04:14.000Z</time>
      </trkpt>
      <trkpt lat="47.99918" lon="7.00348">
        <ele>569.68</ele>
        <time>2021-01-26T09:04:22.000Z</time>
      </trkpt>
      <trkpt lat="47.99911" lon="7.00339">
        <ele>567.58</ele>
        <time>2021-01-26T09:04:30.000Z</time>
      </trkpt>
      <trkpt lat="47.99903" lon="7.00331">
        <ele>565.06</ele>
        <time>2021-01-26T09:04:39.000Z</time>
      </trkpt>
      <trkpt lat="47.99903" lon="7.00317">
        <ele>563.52</ele>
        <time>2021-01-26T09:04:50.000Z</time>
      </trkpt>
      <trkpt lat="47.9991" lon="7.00306">
        <ele>564.76</ele>
        <time>2021-01-26T09:05:07.000Z</time>
      </trkpt>
      <trkpt lat="47.99912" lon="7.00293">
        <ele>567.19</ele>
        <time>2021-01-26T09:05:19.000Z</time>
      </trkpt>
      <trkpt lat="47.99918" lon="7.00282">
        <ele>569.89</ele>
        <time>2021-01-26T09:05:29.000Z</time>
      </trkpt>
      <trkpt lat="47.99928" lon="7.00282">
        <ele>573.79</ele>
        <time>2021-01-26T09:05:39.000Z</time>
      </trkpt>
      <trkpt lat="47.99938" lon="7.0028">
        <ele>578.12</ele>
        <time>2021-01-26T09:05:45.000Z</time>
      </trkpt>
      <trkpt lat="47.99947" lon="7.00285">
        <ele>586.32</ele>
        <time>2021-01-26T09:05:59.000Z</time>
      </trkpt>
      <trkpt lat="47.99944" lon="7.00299">
        <ele>602.33</ele>
        <time>2021-01-26T09:06:47.000Z</time>
      </trkpt>
      <trkpt lat="47.99929" lon="7.00293">
        <ele>606.58</ele>
        <time>2021-01-26T09:07:07.000Z</time>
      </trkpt>
      <trkpt lat="47.99924" lon="7.00281">
        <ele>609.52</ele>
        <time>2021-01-26T09:07:17.000Z</time>
      </trkpt>
      <trkpt lat="47.99932" lon="7.00277">
        <ele>630.71</ele>
        <time>2021-01-26T09:08:05.000Z</time>
      </trkpt>
      <trkpt lat="47.99926" lon="7.00288">
        <ele>662.23</ele>
        <time>2021-01-26T09:11:20.000Z</time>
      </trkpt>
      <trkpt lat="47.99917" lon="7.00288">
        <ele>663.39</ele>
        <time>2021-01-26T09:11:30.000Z</time>
      </trkpt>
      <trkpt lat="47.99909" lon="7.00282">
        <ele>665.2</ele>
        <time>2021-01-26T09:11:42.000Z</time>
      </trkpt>
      <trkpt lat="47.99899" lon="7.00282">
        <ele>666.99</ele>
        <time>2021-01-26T09:11:52.000Z</time>
      </trkpt>
      <trkpt lat="47.9989" lon="7.00284">
        <ele>669.09</ele>
        <time>2021-01-26T09:12:07.000Z</time>
      </trkpt>
      <trkpt lat="47.99881" lon="7.00288">
        <ele>671.32</ele>
        <time>2021-01-26T09:12:21.000Z</time>
      </trkpt>
      <trkpt lat="47.99872" lon="7.00289">
        <ele>672.72</ele>
        <time>2021-01-26T09:12:34.000Z</time>
      </trkpt>
      <trkpt lat="47.99862" lon="7.00291">
        <ele>675.14</ele>
        <time>2021-01-26T09:12:52.000Z</time>
      </trkpt>
      <trkpt lat="47.99853" lon="7.00286">
        <ele>674.76</ele>
        <time>2021-01-26T09:13:05.000Z</time>
      </trkpt>
      <trkpt lat="47.99845" lon="7.0028">
        <ele>675.33</ele>
        <time>2021-01-26T09:13:16.000Z</time>
      </trkpt>
      <trkpt lat="47.99836" lon="7.00274">
        <ele>675.66</ele>
        <time>2021-01-26T09:13:34.000Z</time>
      </trkpt>
      <trkpt lat="47.99827" lon="7.00265">
        <ele>675.56</ele>
        <time>2021-01-26T09:13:50.000Z</time>
      </trkpt>
      <trkpt lat="47.9982" lon="7.00257">
        <ele>675.56</ele>
        <time>2021-01-26T09:14:05.000Z</time>
      </trkpt>
      <trkpt lat="47.99811" lon="7.00258">
        <ele>676.11</ele>
        <time>2021-01-26T09:14:13.000Z</time>
      </trkpt>
      <trkpt lat="47.99802" lon="7.00262">
        <ele>676.93</ele>
        <time>2021-01-26T09:14:27.000Z</time>
      </trkpt>
      <trkpt lat="47.99804" lon="7.00276">
        <ele>678.16</ele>
        <time>2021-01-26T09:14:48.000Z</time>
      </trkpt>
      <trkpt lat="47.99808" lon="7.00288">
        <ele>678.53</ele>
        <time>2021-01-26T09:14:58.000Z</time>
      </trkpt>
      <trkpt lat="47.99812" lon="7.00301">
        <ele>679.03</ele>
        <time>2021-01-26T09:15:10.000Z</time>
      </trkpt>
      <trkpt lat="47.99817" lon="7.00313">
        <ele>679.75</ele>
        <time>2021-01-26T09:15:23.000Z</time>
      </trkpt>
      <trkpt lat="47.99822" lon="7.00325">
        <ele>680.13</ele>
        <time>2021-01-26T09:15:35.000Z</time>
      </trkpt>
      <trkpt lat="47.99826" lon="7.00338">
        <ele>681.47</ele>
        <time>2021-01-26T09:15:46.000Z</time>
      </trkpt>
      <trkpt lat="47.99827" lon="7.00352">
        <ele>682.85</ele>
        <time>2021-01-26T09:15:54.000Z</time>
      </trkpt>
      <trkpt lat="47.9983" lon="7.00365">
        <ele>683.94</ele>
        <time>2021-01-26T09:16:05.000Z</time>
      </trkpt>
      <trkpt lat="47.99824" lon="7.00387">
        <ele>689.16</ele>
        <time>2021-01-26T09:16:26.000Z</time>
      </trkpt>
      <trkpt lat="47.99833" lon="7.00384">
        <ele>701.87</ele>
        <time>2021-01-26T09:17:29.000Z</time>
      </trkpt>
      <trkpt lat="47.99836" lon="7.00398">
        <ele>704.08</ele>
        <time>2021-01-26T09:17:53.000Z</time>
      </trkpt>
      <trkpt lat="47.9984" lon="7.00413">
        <ele>705.56</ele>
        <time>2021-01-26T09:18:04.000Z</time>
      </trkpt>
      <trkpt lat="47.99847" lon="7.00423">
        <ele>708.19</ele>
        <time>2021-01-26T09:18:15.000Z</time>
      </trkpt>
      <trkpt lat="47.99855" lon="7.00427">
        <ele>709.19</ele>
        <time>2021-01-26T09:18:23.000Z</time>
      </trkpt>
      <trkpt lat="47.99864" lon="7.0043">
        <ele>710.24</ele>
        <time>2021-01-26T09:18:34.000Z</time>
      </trkpt>
      <trkpt lat="47.99873" lon="7.00432">
        <ele>710.53</ele>
        <time>2021-01-26T09:18:44.000Z</time>
      </trkpt>
      <trkpt lat="47.99882" lon="7.00437">
        <ele>711.25</ele>
        <time>2021-01-26T09:18:57.000Z</time>
      </trkpt>
      <trkpt lat="47.99891" lon="7.00442">
        <ele>711.53</ele>
        <time>2021-01-26T09:19:06.000Z</time>
      </trkpt>
      <trkpt lat="47.99895" lon="7.00454">
        <ele>711.28</ele>
        <time>2021-01-26T09:19:17.000Z</time>
      </trkpt>
      <trkpt lat="47.99887" lon="7.00461">
        <ele>710.93</ele>
        <time>2021-01-26T09:19:28.000Z</time>
      </trkpt>
      <trkpt lat="47.99878" lon="7.00456">
        <ele>710.67</ele>
        <time>2021-01-26T09:19:44.000Z</time>
      </trkpt>
      <trkpt lat="47.99869" lon="7.00451">
        <ele>710.18</ele>
        <time>2021-01-26T09:19:54.000Z</time>
      </trkpt>
      <trkpt lat="47.99859" lon="7.00451">
        <ele>710.43</ele>
        <time>2021-01-26T09:20:05.000Z</time>
      </trkpt>
      <trkpt lat="47.9985" lon="7.00448">
        <ele>711.43</ele>
        <time>2021-01-26T09:20:16.000Z</time>
      </trkpt>
      <trkpt lat="47.99841" lon="7.00444">
        <ele>712.3</ele>
        <time>2021-01-26T09:20:27.000Z</time>
      </trkpt>
      <trkpt lat="47.99831" lon="7.00443">
        <ele>713.22</ele>
        <time>2021-01-26T09:20:37.000Z</time>
      </trkpt>
      <trkpt lat="47.99822" lon="7.0044">
        <ele>714.03</ele>
        <time>2021-01-26T09:20:46.000Z</time>
      </trkpt>
      <trkpt lat="47.99813" lon="7.00442">
        <ele>713.58</ele>
        <time>2021-01-26T09:21:08.000Z</time>
      </trkpt>
      <trkpt lat="47.99805" lon="7.00434">
        <ele>715.47</ele>
        <time>2021-01-26T09:21:15.000Z</time>
      </trkpt>
      <trkpt lat="47.99797" lon="7.00427">
        <ele>717.42</ele>
        <time>2021-01-26T09:21:25.000Z</time>
      </trkpt>
      <trkpt lat="47.99791" lon="7.00416">
        <ele>718.09</ele>
        <time>2021-01-26T09:21:40.000Z</time>
      </trkpt>
      <trkpt lat="47.9979" lon="7.00401">
        <ele>716.87</ele>
        <time>2021-01-26T09:21:52.000Z</time>
      </trkpt>
      <trkpt lat="47.99789" lon="7.00387">
        <ele>716.18</ele>
        <time>2021-01-26T09:22:01.000Z</time>
      </trkpt>
      <trkpt lat="47.99783" lon="7.00376">
        <ele>715.77</ele>
        <time>2021-01-26T09:22:15.000Z</time>
      </trkpt>
      <trkpt lat="47.99777" lon="7.00366">
        <ele>714.77</ele>
        <time>2021-01-26T09:22:24.000Z</time>
      </trkpt>
      <trkpt lat="47.99772" lon="7.00354">
        <ele>713.62</ele>
        <time>2021-01-26T09:22:34.000Z</time>
      </trkpt>
      <trkpt lat="47.99767" lon="7.00342">
        <ele>713.45</ele>
        <time>2021-01-26T09:22:42.000Z</time>
      </trkpt>
      <trkpt lat="47.99759" lon="7.00335">
        <ele>712.78</ele>
        <time>2021-01-26T09:22:52.000Z</time>
      </trkpt>
      <trkpt lat="47.99755" lon="7.00323">
        <ele>711.39</ele>
        <time>2021-01-26T09:23:08.000Z</time>
      </trkpt>
      <trkpt lat="47.9975" lon="7.00311">
        <ele>710.39</ele>
        <time>2021-01-26T09:23:20.000Z</time>
      </trkpt>
      <trkpt lat="47.99745" lon="7.00299">
        <ele>709.49</ele>
        <time>2021-01-26T09:23:31.000Z</time>
      </trkpt>
      <trkpt lat="47.9974" lon="7.00286">
        <ele>708.31</ele>
        <time>2021-01-26T09:23:42.000Z</time>
      </trkpt>
      <trkpt lat="47.99736" lon="7.00274">
        <ele>707.09</ele>
        <time>2021-01-26T09:23:54.000Z</time>
      </trkpt>
      <trkpt lat="47.99733" lon="7.0026">
        <ele>706.09</ele>
        <time>2021-01-26T09:24:03.000Z</time>
      </trkpt>
      <trkpt lat="47.99733" lon="7.00247">
        <ele>705</ele>
        <time>2021-01-26T09:24:13.000Z</time>
      </trkpt>
      <trkpt lat="47.99731" lon="7.00233">
        <ele>703.39</ele>
        <time>2021-01-26T09:24:27.000Z</time>
      </trkpt>
      <trkpt lat="47.99727" lon="7.00219">
        <ele>702.26</ele>
        <time>2021-01-26T09:24:41.000Z</time>
      </trkpt>
      <trkpt lat="47.99723" lon="7.00207">
        <ele>701.79</ele>
        <time>2021-01-26T09:24:51.000Z</time>
      </trkpt>
      <trkpt lat="47.9972" lon="7.00193">
        <ele>701.09</ele>
        <time>2021-01-26T09:25:03.000Z</time>
      </trkpt>
      <trkpt lat="47.99717" lon="7.0018">
        <ele>700.18</ele>
        <time>2021-01-26T09:25:14.000Z</time>
      </trkpt>
      <trkpt lat="47.99715" lon="7.00167">
        <ele>699.3</ele>
        <time>2021-01-26T09:25:29.000Z</time>
      </trkpt>
      <trkpt lat="47.99718" lon="7.00154">
        <ele>700.79</ele>
        <time>2021-01-26T09:25:58.000Z</time>
      </trkpt>
      <trkpt lat="47.99713" lon="7.00142">
        <ele>703.07</ele>
        <time>2021-01-26T09:26:05.000Z</time>
      </trkpt>
      <trkpt lat="47.99706" lon="7.00134">
        <ele>706.16</ele>
        <time>2021-01-26T09:26:18.000Z</time>
      </trkpt>
      <trkpt lat="47.99712" lon="7.00145">
        <ele>713.69</ele>
        <time>2021-01-26T09:26:34.000Z</time>
      </trkpt>
      <trkpt lat="47.99721" lon="7.00155">
        <ele>723.68</ele>
        <time>2021-01-26T09:27:03.000Z</time>
      </trkpt>
      <trkpt lat="47.99712" lon="7.00154">
        <ele>725.84</ele>
        <time>2021-01-26T09:27:23.000Z</time>
      </trkpt>
      <trkpt lat="47.99721" lon="7.00158">
        <ele>725.65</ele>
        <time>2021-01-26T09:27:28.000Z</time>
      </trkpt>
      <trkpt lat="47.99727" lon="7.00144">
        <ele>726.27</ele>
        <time>2021-01-26T09:27:33.000Z</time>
      </trkpt>
      <trkpt lat="47.99727" lon="7.0013">
        <ele>727.81</ele>
        <time>2021-01-26T09:27:44.000Z</time>
      </trkpt>
      <trkpt lat="47.99724" lon="7.00115">
        <ele>728.66</ele>
        <time>2021-01-26T09:27:56.000Z</time>
      </trkpt>
      <trkpt lat="47.99723" lon="7.00102">
        <ele>730.83</ele>
        <time>2021-01-26T09:28:07.000Z</time>
      </trkpt>
      <trkpt lat="47.99719" lon="7.00089">
        <ele>731.21</ele>
        <time>2021-01-26T09:28:21.000Z</time>
      </trkpt>
      <trkpt lat="47.99723" lon="7.00076">
        <ele>734.05</ele>
        <time>2021-01-26T09:28:47.000Z</time>
      </trkpt>
      <trkpt lat="47.99723" lon="7.00061">
        <ele>735.13</ele>
        <time>2021-01-26T09:29:01.000Z</time>
      </trkpt>
      <trkpt lat="47.9972" lon="7.00048">
        <ele>738.12</ele>
        <time>2021-01-26T09:29:13.000Z</time>
      </trkpt>
      <trkpt lat="47.99719" lon="7.00035">
        <ele>739.45</ele>
        <time>2021-01-26T09:29:30.000Z</time>
      </trkpt>
      <trkpt lat="47.99718" lon="7.00021">
        <ele>739.06</ele>
        <time>2021-01-26T09:29:43.000Z</time>
      </trkpt>
      <trkpt lat="47.99717" lon="7.00006">
        <ele>735.86</ele>
        <time>2021-01-26T09:29:53.000Z</time>
      </trkpt>
      <trkpt lat="47.99718" lon="6.99992">
        <ele>732.56</ele>
        <time>2021-01-26T09:30:04.000Z</time>
      </trkpt>
      <trkpt lat="47.99722" lon="6.99978">
        <ele>731.01</ele>
        <time>2021-01-26T09:30:14.000Z</time>
      </trkpt>
      <trkpt lat="47.99727" lon="6.99966">
        <ele>729.79</ele>
        <time>2021-01-26T09:30:23.000Z</time>
      </trkpt>
      <trkpt lat="47.99728" lon="6.99952">
        <ele>730.4</ele>
        <time>2021-01-26T09:30:42.000Z</time>
      </trkpt>
      <trkpt lat="47.99715" lon="6.99949">
        <ele>738.16</ele>
        <time>2021-01-26T09:31:08.000Z</time>
      </trkpt>
      <trkpt lat="47.99711" lon="6.99964">
        <ele>754.37</ele>
        <time>2021-01-26T09:31:20.000Z</time>
      </trkpt>
      <trkpt lat="47.99711" lon="6.99978">
        <ele>763.08</ele>
        <time>2021-01-26T09:31:31.000Z</time>
      </trkpt>
      <trkpt lat="47.9971" lon="6.99993">
        <ele>764.53</ele>
        <time>2021-01-26T09:31:43.000Z</time>
      </trkpt>
      <trkpt lat="47.99709" lon="7.00006">
        <ele>770.26</ele>
        <time>2021-01-26T09:31:55.000Z</time>
      </trkpt>
      <trkpt lat="47.99706" lon="7.00019">
        <ele>772.41</ele>
        <time>2021-01-26T09:32:08.000Z</time>
      </trkpt>
      <trkpt lat="47.99701" lon="7.00036">
        <ele>775.41</ele>
        <time>2021-01-26T09:32:21.000Z</time>
      </trkpt>
      <trkpt lat="47.99696" lon="7.00048">
        <ele>777.42</ele>
        <time>2021-01-26T09:32:29.000Z</time>
      </trkpt>
      <trkpt lat="47.99693" lon="7.00064">
        <ele>779.88</ele>
        <time>2021-01-26T09:32:44.000Z</time>
      </trkpt>
      <trkpt lat="47.99693" lon="7.0008">
        <ele>782.91</ele>
        <time>2021-01-26T09:32:59.000Z</time>
      </trkpt>
      <trkpt lat="47.99695" lon="7.00097">
        <ele>786.01</ele>
        <time>2021-01-26T09:33:23.000Z</time>
      </trkpt>
      <trkpt lat="47.99688" lon="7.00111">
        <ele>785.08</ele>
        <time>2021-01-26T09:33:40.000Z</time>
      </trkpt>
      <trkpt lat="47.99684" lon="7.00127">
        <ele>783.13</ele>
        <time>2021-01-26T09:33:55.000Z</time>
      </trkpt>
      <trkpt lat="47.99681" lon="7.00145">
        <ele>781.41</ele>
        <time>2021-01-26T09:34:11.000Z</time>
      </trkpt>
      <trkpt lat="47.9968" lon="7.00162">
        <ele>780.16</ele>
        <time>2021-01-26T09:34:35.000Z</time>
      </trkpt>
      <trkpt lat="47.99677" lon="7.00178">
        <ele>779.73</ele>
        <time>2021-01-26T09:34:49.000Z</time>
      </trkpt>
      <trkpt lat="47.99674" lon="7.00197">
        <ele>779.33</ele>
        <time>2021-01-26T09:35:02.000Z</time>
      </trkpt>
      <trkpt lat="47.99673" lon="7.00216">
        <ele>779.26</ele>
        <time>2021-01-26T09:35:23.000Z</time>
      </trkpt>
      <trkpt lat="47.99675" lon="7.00232">
        <ele>780.98</ele>
        <time>2021-01-26T09:35:39.000Z</time>
      </trkpt>
      <trkpt lat="47.99677" lon="7.00249">
        <ele>783.16</ele>
        <time>2021-01-26T09:35:53.000Z</time>
      </trkpt>
      <trkpt lat="47.99675" lon="7.00267">
        <ele>783.86</ele>
        <time>2021-01-26T09:36:09.000Z</time>
      </trkpt>
      <trkpt lat="47.99676" lon="7.00287">
        <ele>783.41</ele>
        <time>2021-01-26T09:36:28.000Z</time>
      </trkpt>
      <trkpt lat="47.99674" lon="7.00304">
        <ele>784.86</ele>
        <time>2021-01-26T09:36:41.000Z</time>
      </trkpt>
      <trkpt lat="47.99672" lon="7.00317">
        <ele>785.05</ele>
        <time>2021-01-26T09:36:48.000Z</time>
      </trkpt>
      <trkpt lat="47.99676" lon="7.00332">
        <ele>784.23</ele>
        <time>2021-01-26T09:37:07.000Z</time>
      </trkpt>
      <trkpt lat="47.99676" lon="7.00348">
        <ele>783.61</ele>
        <time>2021-01-26T09:37:18.000Z</time>
      </trkpt>
      <trkpt lat="47.99672" lon="7.00365">
        <ele>785.1</ele>
        <time>2021-01-26T09:37:23.000Z</time>
      </trkpt>
      <trkpt lat="47.99682" lon="7.00382">
        <ele>793.78</ele>
        <time>2021-01-26T09:37:44.000Z</time>
      </trkpt>
      <trkpt lat="47.99685" lon="7.00397">
        <ele>797.73</ele>
        <time>2021-01-26T09:37:59.000Z</time>
      </trkpt>
      <trkpt lat="47.99681" lon="7.00413">
        <ele>800.31</ele>
        <time>2021-01-26T09:38:13.000Z</time>
      </trkpt>
      <trkpt lat="47.99675" lon="7.00428">
        <ele>802.63</ele>
        <time>2021-01-26T09:38:27.000Z</time>
      </trkpt>
      <trkpt lat="47.99665" lon="7.00438">
        <ele>805.11</ele>
        <time>2021-01-26T09:38:45.000Z</time>
      </trkpt>
      <trkpt lat="47.99654" lon="7.00439">
        <ele>807.03</ele>
        <time>2021-01-26T09:39:00.000Z</time>
      </trkpt>
      <trkpt lat="47.99643" lon="7.00438">
        <ele>808.03</ele>
        <time>2021-01-26T09:39:15.000Z</time>
      </trkpt>
      <trkpt lat="47.99631" lon="7.00434">
        <ele>808.73</ele>
        <time>2021-01-26T09:39:29.000Z</time>
      </trkpt>
      <trkpt lat="47.99619" lon="7.00434">
        <ele>809.81</ele>
        <time>2021-01-26T09:39:43.000Z</time>
      </trkpt>
      <trkpt lat="47.99607" lon="7.00439">
        <ele>810.51</ele>
        <time>2021-01-26T09:40:00.000Z</time>
      </trkpt>
      <trkpt lat="47.99601" lon="7.00453">
        <ele>810.98</ele>
        <time>2021-01-26T09:40:16.000Z</time>
      </trkpt>
      <trkpt lat="47.99599" lon="7.00471">
        <ele>811.56</ele>
        <time>2021-01-26T09:40:31.000Z</time>
      </trkpt>
      <trkpt lat="47.996" lon="7.0049">
        <ele>812.41</ele>
        <time>2021-01-26T09:40:44.000Z</time>
      </trkpt>
      <trkpt lat="47.99602" lon="7.00507">
        <ele>813.28</ele>
        <time>2021-01-26T09:40:58.000Z</time>
      </trkpt>
      <trkpt lat="47.99604" lon="7.00523">
        <ele>814.16</ele>
        <time>2021-01-26T09:41:13.000Z</time>
      </trkpt>
      <trkpt lat="47.99607" lon="7.00541">
        <ele>814.93</ele>
        <time>2021-01-26T09:41:26.000Z</time>
      </trkpt>
      <trkpt lat="47.99612" lon="7.00557">
        <ele>815.78</ele>
        <time>2021-01-26T09:41:41.000Z</time>
      </trkpt>
      <trkpt lat="47.99617" lon="7.00572">
        <ele>816.21</ele>
        <time>2021-01-26T09:41:55.000Z</time>
      </trkpt>
      <trkpt lat="47.99624" lon="7.00588">
        <ele>816.53</ele>
        <time>2021-01-26T09:42:10.000Z</time>
      </trkpt>
      <trkpt lat="47.99631" lon="7.00602">
        <ele>816.33</ele>
        <time>2021-01-26T09:42:24.000Z</time>
      </trkpt>
      <trkpt lat="47.9964" lon="7.00614">
        <ele>815.56</ele>
        <time>2021-01-26T09:42:38.000Z</time>
      </trkpt>
      <trkpt lat="47.9965" lon="7.00623">
        <ele>814.88</ele>
        <time>2021-01-26T09:42:54.000Z</time>
      </trkpt>
      <trkpt lat="47.99658" lon="7.00635">
        <ele>814.61</ele>
        <time>2021-01-26T09:43:09.000Z</time>
      </trkpt>
      <trkpt lat="47.99667" lon="7.00645">
        <ele>814.71</ele>
        <time>2021-01-26T09:43:24.000Z</time>
      </trkpt>
      <trkpt lat="47.99679" lon="7.00653">
        <ele>814.78</ele>
        <time>2021-01-26T09:43:37.000Z</time>
      </trkpt>
      <trkpt lat="47.99691" lon="7.00661">
        <ele>814.61</ele>
        <time>2021-01-26T09:43:53.000Z</time>
      </trkpt>
      <trkpt lat="47.99702" lon="7.00665">
        <ele>815.16</ele>
        <time>2021-01-26T09:44:10.000Z</time>
      </trkpt>
      <trkpt lat="47.99712" lon="7.00669">
        <ele>815.78</ele>
        <time>2021-01-26T09:44:26.000Z</time>
      </trkpt>
      <trkpt lat="47.99723" lon="7.00674">
        <ele>816.58</ele>
        <time>2021-01-26T09:44:39.000Z</time>
      </trkpt>
      <trkpt lat="47.99734" lon="7.00678">
        <ele>817.68</ele>
        <time>2021-01-26T09:44:50.000Z</time>
      </trkpt>
      <trkpt lat="47.99743" lon="7.00678">
        <ele>818.83</ele>
        <time>2021-01-26T09:45:00.000Z</time>
      </trkpt>
      <trkpt lat="47.99752" lon="7.0068">
        <ele>819.61</ele>
        <time>2021-01-26T09:45:12.000Z</time>
      </trkpt>
      <trkpt lat="47.99765" lon="7.00684">
        <ele>820.43</ele>
        <time>2021-01-26T09:45:25.000Z</time>
      </trkpt>
      <trkpt lat="47.99774" lon="7.00687">
        <ele>820.46</ele>
        <time>2021-01-26T09:45:33.000Z</time>
      </trkpt>
      <trkpt lat="47.99784" lon="7.00692">
        <ele>820.76</ele>
        <time>2021-01-26T09:45:48.000Z</time>
      </trkpt>
      <trkpt lat="47.99796" lon="7.00696">
        <ele>820.38</ele>
        <time>2021-01-26T09:46:03.000Z</time>
      </trkpt>
      <trkpt lat="47.99804" lon="7.00705">
        <ele>819.46</ele>
        <time>2021-01-26T09:46:18.000Z</time>
      </trkpt>
      <trkpt lat="47.99815" lon="7.0071">
        <ele>820.65</ele>
        <time>2021-01-26T09:46:23.000Z</time>
      </trkpt>
      <trkpt lat="47.99822" lon="7.00719">
        <ele>823.37</ele>
        <time>2021-01-26T09:46:32.000Z</time>
      </trkpt>
      <trkpt lat="47.99828" lon="7.0073">
        <ele>825.62</ele>
        <time>2021-01-26T09:46:40.000Z</time>
      </trkpt>
      <trkpt lat="47.99834" lon="7.00741">
        <ele>826.93</ele>
        <time>2021-01-26T09:46:48.000Z</time>
      </trkpt>
      <trkpt lat="47.9984" lon="7.00755">
        <ele>829.18</ele>
        <time>2021-01-26T09:47:18.000Z</time>
      </trkpt>
      <trkpt lat="47.99841" lon="7.00772">
        <ele>826.71</ele>
        <time>2021-01-26T09:47:33.000Z</time>
      </trkpt>
      <trkpt lat="47.99833" lon="7.00784">
        <ele>823.51</ele>
        <time>2021-01-26T09:47:47.000Z</time>
      </trkpt>
      <trkpt lat="47.99827" lon="7.00771">
        <ele>824.08</ele>
        <time>2021-01-26T09:48:12.000Z</time>
      </trkpt>
      <trkpt lat="47.99822" lon="7.00756">
        <ele>826.13</ele>
        <time>2021-01-26T09:48:31.000Z</time>
      </trkpt>
      <trkpt lat="47.99815" lon="7.00745">
        <ele>827.33</ele>
        <time>2021-01-26T09:48:55.000Z</time>
      </trkpt>
      <trkpt lat="47.99806" lon="7.00738">
        <ele>827.53</ele>
        <time>2021-01-26T09:49:21.000Z</time>
      </trkpt>
      <trkpt lat="47.99795" lon="7.00733">
        <ele>827.81</ele>
        <time>2021-01-26T09:49:38.000Z</time>
      </trkpt>
      <trkpt lat="47.99784" lon="7.0073">
        <ele>827.63</ele>
        <time>2021-01-26T09:50:01.000Z</time>
      </trkpt>
      <trkpt lat="47.99774" lon="7.00728">
        <ele>827.68</ele>
        <time>2021-01-26T09:50:22.000Z</time>
      </trkpt>
      <trkpt lat="47.99764" lon="7.00732">
        <ele>829.23</ele>
        <time>2021-01-26T09:50:41.000Z</time>
      </trkpt>
      <trkpt lat="47.99753" lon="7.00736">
        <ele>831.46</ele>
        <time>2021-01-26T09:51:00.000Z</time>
      </trkpt>
      <trkpt lat="47.99743" lon="7.0074">
        <ele>833.56</ele>
        <time>2021-01-26T09:51:19.000Z</time>
      </trkpt>
      <trkpt lat="47.99732" lon="7.00742">
        <ele>834.91</ele>
        <time>2021-01-26T09:51:34.000Z</time>
      </trkpt>
      <trkpt lat="47.9972" lon="7.00745">
        <ele>836.58</ele>
        <time>2021-01-26T09:51:53.000Z</time>
      </trkpt>
      <trkpt lat="47.9971" lon="7.00749">
        <ele>837.96</ele>
        <time>2021-01-26T09:52:11.000Z</time>
      </trkpt>
      <trkpt lat="47.99699" lon="7.00749">
        <ele>838.76</ele>
        <time>2021-01-26T09:52:27.000Z</time>
      </trkpt>
      <trkpt lat="47.99688" lon="7.00749">
        <ele>839.11</ele>
        <time>2021-01-26T09:52:44.000Z</time>
      </trkpt>
      <trkpt lat="47.99677" lon="7.00749">
        <ele>839.48</ele>
        <time>2021-01-26T09:52:59.000Z</time>
      </trkpt>
      <trkpt lat="47.99665" lon="7.0075">
        <ele>839.98</ele>
        <time>2021-01-26T09:53:15.000Z</time>
      </trkpt>
      <trkpt lat="47.99654" lon="7.0075">
        <ele>840.13</ele>
        <time>2021-01-26T09:53:30.000Z</time>
      </trkpt>
      <trkpt lat="47.99642" lon="7.0075">
        <ele>840.26</ele>
        <time>2021-01-26T09:53:44.000Z</time>
      </trkpt>
      <trkpt lat="47.99629" lon="7.00753">
        <ele>840.33</ele>
        <time>2021-01-26T09:53:59.000Z</time>
      </trkpt>
      <trkpt lat="47.99617" lon="7.00755">
        <ele>840.78</ele>
        <time>2021-01-26T09:54:14.000Z</time>
      </trkpt>
      <trkpt lat="47.99605" lon="7.00753">
        <ele>841.91</ele>
        <time>2021-01-26T09:54:28.000Z</time>
      </trkpt>
      <trkpt lat="47.99594" lon="7.00754">
        <ele>842.33</ele>
        <time>2021-01-26T09:54:44.000Z</time>
      </trkpt>
      <trkpt lat="47.99582" lon="7.00756">
        <ele>842.23</ele>
        <time>2021-01-26T09:54:58.000Z</time>
      </trkpt>
      <trkpt lat="47.99571" lon="7.00758">
        <ele>842.78</ele>
        <time>2021-01-26T09:55:13.000Z</time>
      </trkpt>
      <trkpt lat="47.9956" lon="7.00759">
        <ele>843.48</ele>
        <time>2021-01-26T09:55:30.000Z</time>
      </trkpt>
      <trkpt lat="47.99549" lon="7.00762">
        <ele>843.83</ele>
        <time>2021-01-26T09:55:43.000Z</time>
      </trkpt>
      <trkpt lat="47.99537" lon="7.00763">
        <ele>843.88</ele>
        <time>2021-01-26T09:56:00.000Z</time>
      </trkpt>
      <trkpt lat="47.99524" lon="7.0076">
        <ele>844.18</ele>
        <time>2021-01-26T09:56:13.000Z</time>
      </trkpt>
      <trkpt lat="47.99513" lon="7.00754">
        <ele>845.28</ele>
        <time>2021-01-26T09:56:25.000Z</time>
      </trkpt>
      <trkpt lat="47.99501" lon="7.00749">
        <ele>846.56</ele>
        <time>2021-01-26T09:56:41.000Z</time>
      </trkpt>
      <trkpt lat="47.9949" lon="7.00744">
        <ele>847.93</ele>
        <time>2021-01-26T09:56:54.000Z</time>
      </trkpt>
      <trkpt lat="47.99479" lon="7.00741">
        <ele>849.01</ele>
        <time>2021-01-26T09:57:12.000Z</time>
      </trkpt>
      <trkpt lat="47.99468" lon="7.00737">
        <ele>850.06</ele>
        <time>2021-01-26T09:57:28.000Z</time>
      </trkpt>
      <trkpt lat="47.99459" lon="7.00729">
        <ele>854.01</ele>
        <time>2021-01-26T09:57:42.000Z</time>
      </trkpt>
      <trkpt lat="47.9945" lon="7.00718">
        <ele>856.86</ele>
        <time>2021-01-26T09:57:53.000Z</time>
      </trkpt>
      <trkpt lat="47.99442" lon="7.00709">
        <ele>859.29</ele>
        <time>2021-01-26T09:58:01.000Z</time>
      </trkpt>
      <trkpt lat="47.99433" lon="7.00704">
        <ele>861.31</ele>
        <time>2021-01-26T09:58:15.000Z</time>
      </trkpt>
      <trkpt lat="47.99422" lon="7.007">
        <ele>864.76</ele>
        <time>2021-01-26T09:58:31.000Z</time>
      </trkpt>
      <trkpt lat="47.99412" lon="7.00696">
        <ele>866.91</ele>
        <time>2021-01-26T09:58:52.000Z</time>
      </trkpt>
      <trkpt lat="47.99401" lon="7.00689">
        <ele>868.13</ele>
        <time>2021-01-26T09:59:07.000Z</time>
      </trkpt>
      <trkpt lat="47.99391" lon="7.0068">
        <ele>869.31</ele>
        <time>2021-01-26T09:59:21.000Z</time>
      </trkpt>
      <trkpt lat="47.99381" lon="7.00671">
        <ele>870.38</ele>
        <time>2021-01-26T09:59:35.000Z</time>
      </trkpt>
      <trkpt lat="47.99371" lon="7.00664">
        <ele>871.88</ele>
        <time>2021-01-26T09:59:51.000Z</time>
      </trkpt>
      <trkpt lat="47.99361" lon="7.00655">
        <ele>873.68</ele>
        <time>2021-01-26T10:00:04.000Z</time>
      </trkpt>
      <trkpt lat="47.99352" lon="7.00642">
        <ele>876.56</ele>
        <time>2021-01-26T10:00:24.000Z</time>
      </trkpt>
      <trkpt lat="47.99344" lon="7.00635">
        <ele>878.33</ele>
        <time>2021-01-26T10:00:43.000Z</time>
      </trkpt>
      <trkpt lat="47.99333" lon="7.00625">
        <ele>880.26</ele>
        <time>2021-01-26T10:01:01.000Z</time>
      </trkpt>
      <trkpt lat="47.99325" lon="7.00612">
        <ele>881.86</ele>
        <time>2021-01-26T10:01:19.000Z</time>
      </trkpt>
      <trkpt lat="47.99319" lon="7.00596">
        <ele>883.43</ele>
        <time>2021-01-26T10:01:32.000Z</time>
      </trkpt>
      <trkpt lat="47.99313" lon="7.0058">
        <ele>885.31</ele>
        <time>2021-01-26T10:01:46.000Z</time>
      </trkpt>
      <trkpt lat="47.99308" lon="7.00565">
        <ele>887.58</ele>
        <time>2021-01-26T10:02:01.000Z</time>
      </trkpt>
      <trkpt lat="47.99302" lon="7.00549">
        <ele>889.88</ele>
        <time>2021-01-26T10:02:15.000Z</time>
      </trkpt>
      <trkpt lat="47.993" lon="7.00535">
        <ele>890.41</ele>
        <time>2021-01-26T10:02:32.000Z</time>
      </trkpt>
      <trkpt lat="47.99296" lon="7.00519">
        <ele>890.83</ele>
        <time>2021-01-26T10:02:46.000Z</time>
      </trkpt>
      <trkpt lat="47.99289" lon="7.00502">
        <ele>891.83</ele>
        <time>2021-01-26T10:02:59.000Z</time>
      </trkpt>
      <trkpt lat="47.99285" lon="7.00486">
        <ele>893.21</ele>
        <time>2021-01-26T10:03:25.000Z</time>
      </trkpt>
      <trkpt lat="47.99293" lon="7.00479">
        <ele>903.08</ele>
        <time>2021-01-26T10:04:07.000Z</time>
      </trkpt>
      <trkpt lat="47.99303" lon="7.00481">
        <ele>908.99</ele>
        <time>2021-01-26T10:04:23.000Z</time>
      </trkpt>
      <trkpt lat="47.99298" lon="7.00462">
        <ele>918.58</ele>
        <time>2021-01-26T10:05:05.000Z</time>
      </trkpt>
      <trkpt lat="47.99286" lon="7.00468">
        <ele>919.16</ele>
        <time>2021-01-26T10:05:10.000Z</time>
      </trkpt>
      <trkpt lat="47.9929" lon="7.00455">
        <ele>919.26</ele>
        <time>2021-01-26T10:05:34.000Z</time>
      </trkpt>
      <trkpt lat="47.99287" lon="7.00437">
        <ele>919.9</ele>
        <time>2021-01-26T10:05:39.000Z</time>
      </trkpt>
      <trkpt lat="47.99296" lon="7.0046">
        <ele>921.86</ele>
        <time>2021-01-26T10:05:51.000Z</time>
      </trkpt>
      <trkpt lat="47.99297" lon="7.00435">
        <ele>923.76</ele>
        <time>2021-01-26T10:13:10.000Z</time>
      </trkpt>
      <trkpt lat="47.99303" lon="7.0042">
        <ele>926.21</ele>
        <time>2021-01-26T10:13:35.000Z</time>
      </trkpt>
      <trkpt lat="47.99306" lon="7.00404">
        <ele>925.96</ele>
        <time>2021-01-26T10:13:50.000Z</time>
      </trkpt>
      <trkpt lat="47.9931" lon="7.00388">
        <ele>924.56</ele>
        <time>2021-01-26T10:14:06.000Z</time>
      </trkpt>
      <trkpt lat="47.99316" lon="7.00374">
        <ele>923.98</ele>
        <time>2021-01-26T10:14:33.000Z</time>
      </trkpt>
      <trkpt lat="47.9932" lon="7.00361">
        <ele>923.93</ele>
        <time>2021-01-26T10:14:57.000Z</time>
      </trkpt>
      <trkpt lat="47.99322" lon="7.00333">
        <ele>922.06</ele>
        <time>2021-01-26T10:15:53.000Z</time>
      </trkpt>
      <trkpt lat="47.99324" lon="7.00346">
        <ele>919.67</ele>
        <time>2021-01-26T10:16:06.000Z</time>
      </trkpt>
      <trkpt lat="47.99332" lon="7.00337">
        <ele>923.15</ele>
        <time>2021-01-26T10:16:27.000Z</time>
      </trkpt>
      <trkpt lat="47.99339" lon="7.00326">
        <ele>925.43</ele>
        <time>2021-01-26T10:16:40.000Z</time>
      </trkpt>
      <trkpt lat="47.99328" lon="7.00326">
        <ele>927.66</ele>
        <time>2021-01-26T10:17:01.000Z</time>
      </trkpt>
      <trkpt lat="47.99337" lon="7.00327">
        <ele>928.09</ele>
        <time>2021-01-26T10:17:19.000Z</time>
      </trkpt>
      <trkpt lat="47.99345" lon="7.00321">
        <ele>929.53</ele>
        <time>2021-01-26T10:17:25.000Z</time>
      </trkpt>
      <trkpt lat="47.99356" lon="7.00307">
        <ele>932.01</ele>
        <time>2021-01-26T10:18:35.000Z</time>
      </trkpt>
      <trkpt lat="47.99365" lon="7.00296">
        <ele>931.58</ele>
        <time>2021-01-26T10:18:55.000Z</time>
      </trkpt>
      <trkpt lat="47.99373" lon="7.00284">
        <ele>931.63</ele>
        <time>2021-01-26T10:19:10.000Z</time>
      </trkpt>
      <trkpt lat="47.9938" lon="7.00272">
        <ele>931.96</ele>
        <time>2021-01-26T10:19:26.000Z</time>
      </trkpt>
      <trkpt lat="47.99389" lon="7.00263">
        <ele>932.71</ele>
        <time>2021-01-26T10:19:42.000Z</time>
      </trkpt>
      <trkpt lat="47.994" lon="7.00255">
        <ele>933.73</ele>
        <time>2021-01-26T10:19:57.000Z</time>
      </trkpt>
      <trkpt lat="47.9941" lon="7.00249">
        <ele>934.83</ele>
        <time>2021-01-26T10:20:13.000Z</time>
      </trkpt>
      <trkpt lat="47.99419" lon="7.0024">
        <ele>937.33</ele>
        <time>2021-01-26T10:20:38.000Z</time>
      </trkpt>
      <trkpt lat="47.99421" lon="7.00224">
        <ele>937.71</ele>
        <time>2021-01-26T10:21:09.000Z</time>
      </trkpt>
      <trkpt lat="47.9942" lon="7.00208">
        <ele>938.38</ele>
        <time>2021-01-26T10:21:28.000Z</time>
      </trkpt>
      <trkpt lat="47.99415" lon="7.00193">
        <ele>939.36</ele>
        <time>2021-01-26T10:21:42.000Z</time>
      </trkpt>
      <trkpt lat="47.99411" lon="7.00175">
        <ele>940.68</ele>
        <time>2021-01-26T10:21:54.000Z</time>
      </trkpt>
      <trkpt lat="47.99411" lon="7.00158">
        <ele>942.63</ele>
        <time>2021-01-26T10:22:10.000Z</time>
      </trkpt>
      <trkpt lat="47.99408" lon="7.00142">
        <ele>944.11</ele>
        <time>2021-01-26T10:22:25.000Z</time>
      </trkpt>
      <trkpt lat="47.99403" lon="7.00125">
        <ele>945.33</ele>
        <time>2021-01-26T10:22:39.000Z</time>
      </trkpt>
      <trkpt lat="47.99398" lon="7.0011">
        <ele>946.51</ele>
        <time>2021-01-26T10:22:53.000Z</time>
      </trkpt>
      <trkpt lat="47.99391" lon="7.00095">
        <ele>947.81</ele>
        <time>2021-01-26T10:23:07.000Z</time>
      </trkpt>
      <trkpt lat="47.99385" lon="7.00082">
        <ele>949.28</ele>
        <time>2021-01-26T10:23:21.000Z</time>
      </trkpt>
      <trkpt lat="47.99378" lon="7.00068">
        <ele>950.31</ele>
        <time>2021-01-26T10:23:35.000Z</time>
      </trkpt>
      <trkpt lat="47.99368" lon="7.00057">
        <ele>951.26</ele>
        <time>2021-01-26T10:23:51.000Z</time>
      </trkpt>
      <trkpt lat="47.9936" lon="7.00045">
        <ele>952.71</ele>
        <time>2021-01-26T10:24:07.000Z</time>
      </trkpt>
      <trkpt lat="47.99352" lon="7.00033">
        <ele>953.33</ele>
        <time>2021-01-26T10:24:21.000Z</time>
      </trkpt>
      <trkpt lat="47.99344" lon="7.00018">
        <ele>953.88</ele>
        <time>2021-01-26T10:24:36.000Z</time>
      </trkpt>
      <trkpt lat="47.99337" lon="7.00006">
        <ele>954.21</ele>
        <time>2021-01-26T10:24:49.000Z</time>
      </trkpt>
      <trkpt lat="47.99327" lon="6.99997">
        <ele>954.66</ele>
        <time>2021-01-26T10:25:03.000Z</time>
      </trkpt>
      <trkpt lat="47.99319" lon="6.99986">
        <ele>956.06</ele>
        <time>2021-01-26T10:25:25.000Z</time>
      </trkpt>
      <trkpt lat="47.99316" lon="6.99971">
        <ele>957.23</ele>
        <time>2021-01-26T10:25:42.000Z</time>
      </trkpt>
      <trkpt lat="47.99311" lon="6.99956">
        <ele>958.96</ele>
        <time>2021-01-26T10:25:59.000Z</time>
      </trkpt>
      <trkpt lat="47.99304" lon="6.99943">
        <ele>961.66</ele>
        <time>2021-01-26T10:26:16.000Z</time>
      </trkpt>
      <trkpt lat="47.99297" lon="6.9993">
        <ele>964.36</ele>
        <time>2021-01-26T10:26:32.000Z</time>
      </trkpt>
      <trkpt lat="47.99289" lon="6.9992">
        <ele>964.81</ele>
        <time>2021-01-26T10:26:51.000Z</time>
      </trkpt>
      <trkpt lat="47.9928" lon="6.99908">
        <ele>964.01</ele>
        <time>2021-01-26T10:27:05.000Z</time>
      </trkpt>
      <trkpt lat="47.99273" lon="6.99899">
        <ele>965.52</ele>
        <time>2021-01-26T10:27:34.000Z</time>
      </trkpt>
      <trkpt lat="47.99268" lon="6.99887">
        <ele>968.26</ele>
        <time>2021-01-26T10:27:43.000Z</time>
      </trkpt>
      <trkpt lat="47.99257" lon="6.99871">
        <ele>969.71</ele>
        <time>2021-01-26T10:28:12.000Z</time>
      </trkpt>
      <trkpt lat="47.99247" lon="6.99859">
        <ele>969.01</ele>
        <time>2021-01-26T10:28:23.000Z</time>
      </trkpt>
      <trkpt lat="47.99239" lon="6.9985">
        <ele>968.85</ele>
        <time>2021-01-26T10:28:33.000Z</time>
      </trkpt>
      <trkpt lat="47.99231" lon="6.99841">
        <ele>968.41</ele>
        <time>2021-01-26T10:28:49.000Z</time>
      </trkpt>
      <trkpt lat="47.99221" lon="6.99832">
        <ele>968.01</ele>
        <time>2021-01-26T10:29:07.000Z</time>
      </trkpt>
      <trkpt lat="47.99212" lon="6.99821">
        <ele>968.93</ele>
        <time>2021-01-26T10:29:24.000Z</time>
      </trkpt>
      <trkpt lat="47.99202" lon="6.99812">
        <ele>970.06</ele>
        <time>2021-01-26T10:29:38.000Z</time>
      </trkpt>
      <trkpt lat="47.99191" lon="6.99803">
        <ele>971.28</ele>
        <time>2021-01-26T10:29:53.000Z</time>
      </trkpt>
      <trkpt lat="47.99182" lon="6.99795">
        <ele>972.91</ele>
        <time>2021-01-26T10:30:08.000Z</time>
      </trkpt>
      <trkpt lat="47.99171" lon="6.99785">
        <ele>974.61</ele>
        <time>2021-01-26T10:30:23.000Z</time>
      </trkpt>
      <trkpt lat="47.99161" lon="6.99777">
        <ele>976.01</ele>
        <time>2021-01-26T10:30:37.000Z</time>
      </trkpt>
      <trkpt lat="47.9915" lon="6.99771">
        <ele>977.76</ele>
        <time>2021-01-26T10:30:52.000Z</time>
      </trkpt>
      <trkpt lat="47.9914" lon="6.99763">
        <ele>980.11</ele>
        <time>2021-01-26T10:31:07.000Z</time>
      </trkpt>
      <trkpt lat="47.99129" lon="6.99757">
        <ele>981.63</ele>
        <time>2021-01-26T10:31:28.000Z</time>
      </trkpt>
      <trkpt lat="47.9912" lon="6.99766">
        <ele>982.46</ele>
        <time>2021-01-26T10:31:47.000Z</time>
      </trkpt>
      <trkpt lat="47.99111" lon="6.99763">
        <ele>987.38</ele>
        <time>2021-01-26T10:33:00.000Z</time>
      </trkpt>
      <trkpt lat="47.99128" lon="6.99766">
        <ele>990.06</ele>
        <time>2021-01-26T10:34:27.000Z</time>
      </trkpt>
      <trkpt lat="47.99137" lon="6.99777">
        <ele>991.98</ele>
        <time>2021-01-26T10:34:55.000Z</time>
      </trkpt>
      <trkpt lat="47.99144" lon="6.99789">
        <ele>995.86</ele>
        <time>2021-01-26T10:35:11.000Z</time>
      </trkpt>
      <trkpt lat="47.99151" lon="6.99802">
        <ele>1000.96</ele>
        <time>2021-01-26T10:35:27.000Z</time>
      </trkpt>
      <trkpt lat="47.99159" lon="6.99814">
        <ele>1005.38</ele>
        <time>2021-01-26T10:35:43.000Z</time>
      </trkpt>
      <trkpt lat="47.99164" lon="6.99827">
        <ele>1008.33</ele>
        <time>2021-01-26T10:36:00.000Z</time>
      </trkpt>
      <trkpt lat="47.9917" lon="6.99844">
        <ele>1010.18</ele>
        <time>2021-01-26T10:36:20.000Z</time>
      </trkpt>
      <trkpt lat="47.99177" lon="6.99857">
        <ele>1010.23</ele>
        <time>2021-01-26T10:36:35.000Z</time>
      </trkpt>
      <trkpt lat="47.99181" lon="6.99873">
        <ele>1010.16</ele>
        <time>2021-01-26T10:36:53.000Z</time>
      </trkpt>
      <trkpt lat="47.99186" lon="6.99889">
        <ele>1011.48</ele>
        <time>2021-01-26T10:37:09.000Z</time>
      </trkpt>
      <trkpt lat="47.99189" lon="6.99906">
        <ele>1013.53</ele>
        <time>2021-01-26T10:37:27.000Z</time>
      </trkpt>
      <trkpt lat="47.99191" lon="6.99923">
        <ele>1014.91</ele>
        <time>2021-01-26T10:37:41.000Z</time>
      </trkpt>
      <trkpt lat="47.99194" lon="6.99939">
        <ele>1016.98</ele>
        <time>2021-01-26T10:38:00.000Z</time>
      </trkpt>
      <trkpt lat="47.99195" lon="6.99956">
        <ele>1019.98</ele>
        <time>2021-01-26T10:38:19.000Z</time>
      </trkpt>
      <trkpt lat="47.99197" lon="6.99972">
        <ele>1021.16</ele>
        <time>2021-01-26T10:38:36.000Z</time>
      </trkpt>
      <trkpt lat="47.99198" lon="6.99989">
        <ele>1022.61</ele>
        <time>2021-01-26T10:38:55.000Z</time>
      </trkpt>
      <trkpt lat="47.992" lon="7.00006">
        <ele>1024.68</ele>
        <time>2021-01-26T10:39:12.000Z</time>
      </trkpt>
      <trkpt lat="47.99199" lon="7.00023">
        <ele>1026.66</ele>
        <time>2021-01-26T10:39:39.000Z</time>
      </trkpt>
      <trkpt lat="47.99201" lon="7.00039">
        <ele>1027.21</ele>
        <time>2021-01-26T10:39:55.000Z</time>
      </trkpt>
      <trkpt lat="47.99202" lon="7.00056">
        <ele>1027.96</ele>
        <time>2021-01-26T10:40:11.000Z</time>
      </trkpt>
      <trkpt lat="47.99205" lon="7.00072">
        <ele>1029.51</ele>
        <time>2021-01-26T10:40:33.000Z</time>
      </trkpt>
      <trkpt lat="47.99207" lon="7.00089">
        <ele>1031.31</ele>
        <time>2021-01-26T10:40:50.000Z</time>
      </trkpt>
      <trkpt lat="47.99206" lon="7.00106">
        <ele>1033.16</ele>
        <time>2021-01-26T10:41:14.000Z</time>
      </trkpt>
      <trkpt lat="47.99204" lon="7.00123">
        <ele>1033.43</ele>
        <time>2021-01-26T10:41:32.000Z</time>
      </trkpt>
      <trkpt lat="47.99206" lon="7.0014">
        <ele>1034.58</ele>
        <time>2021-01-26T10:41:47.000Z</time>
      </trkpt>
      <trkpt lat="47.99207" lon="7.00157">
        <ele>1035.66</ele>
        <time>2021-01-26T10:42:01.000Z</time>
      </trkpt>
      <trkpt lat="47.99196" lon="7.00152">
        <ele>1033.86</ele>
        <time>2021-01-26T10:43:31.000Z</time>
      </trkpt>
      <trkpt lat="47.99186" lon="7.00156">
        <ele>1033.88</ele>
        <time>2021-01-26T10:44:51.000Z</time>
      </trkpt>
      <trkpt lat="47.9918" lon="7.00168">
        <ele>1033.68</ele>
        <time>2021-01-26T10:45:14.000Z</time>
      </trkpt>
      <trkpt lat="47.99171" lon="7.00165">
        <ele>1035.62</ele>
        <time>2021-01-26T10:46:09.000Z</time>
      </trkpt>
      <trkpt lat="47.99162" lon="7.00163">
        <ele>1036.25</ele>
        <time>2021-01-26T10:46:57.000Z</time>
      </trkpt>
      <trkpt lat="47.99153" lon="7.00157">
        <ele>1038.8</ele>
        <time>2021-01-26T10:48:08.000Z</time>
      </trkpt>
      <trkpt lat="47.99144" lon="7.00165">
        <ele>1041.95</ele>
        <time>2021-01-26T10:48:57.000Z</time>
      </trkpt>
      <trkpt lat="47.99135" lon="7.00165">
        <ele>1045.35</ele>
        <time>2021-01-26T10:50:35.000Z</time>
      </trkpt>
      <trkpt lat="47.99125" lon="7.00168">
        <ele>1049.98</ele>
        <time>2021-01-26T10:51:15.000Z</time>
      </trkpt>
      <trkpt lat="47.99106" lon="7.00171">
        <ele>1052.8</ele>
        <time>2021-01-26T10:51:20.000Z</time>
      </trkpt>
      <trkpt lat="47.99114" lon="7.00163">
        <ele>1055.52</ele>
        <time>2021-01-26T10:51:25.000Z</time>
      </trkpt>
      <trkpt lat="47.99122" lon="7.0018">
        <ele>1065.83</ele>
        <time>2021-01-26T10:52:06.000Z</time>
      </trkpt>
      <trkpt lat="47.99121" lon="7.00167">
        <ele>1068.68</ele>
        <time>2021-01-26T10:52:11.000Z</time>
      </trkpt>
      <trkpt lat="47.9912" lon="7.00184">
        <ele>1071</ele>
        <time>2021-01-26T10:52:22.000Z</time>
      </trkpt>
      <trkpt lat="47.9911" lon="7.00176">
        <ele>1085.1</ele>
        <time>2021-01-26T10:53:26.000Z</time>
      </trkpt>
      <trkpt lat="47.99101" lon="7.0018">
        <ele>1088.73</ele>
        <time>2021-01-26T10:54:08.000Z</time>
      </trkpt>
      <trkpt lat="47.99092" lon="7.00187">
        <ele>1090.08</ele>
        <time>2021-01-26T10:54:38.000Z</time>
      </trkpt>
      <trkpt lat="47.99084" lon="7.00199">
        <ele>1090.68</ele>
        <time>2021-01-26T10:55:03.000Z</time>
      </trkpt>
      <trkpt lat="47.99076" lon="7.00192">
        <ele>1095.2</ele>
        <time>2021-01-26T10:56:02.000Z</time>
      </trkpt>
      <trkpt lat="47.99067" lon="7.00202">
        <ele>1099.33</ele>
        <time>2021-01-26T10:56:21.000Z</time>
      </trkpt>
      <trkpt lat="47.99056" lon="7.002">
        <ele>1102.58</ele>
        <time>2021-01-26T10:56:43.000Z</time>
      </trkpt>
      <trkpt lat="47.99053" lon="7.00185">
        <ele>1105.63</ele>
        <time>2021-01-26T10:57:01.000Z</time>
      </trkpt>
      <trkpt lat="47.99046" lon="7.00172">
        <ele>1108.6</ele>
        <time>2021-01-26T10:57:23.000Z</time>
      </trkpt>
      <trkpt lat="47.99041" lon="7.00184">
        <ele>1114.33</ele>
        <time>2021-01-26T10:59:44.000Z</time>
      </trkpt>
      <trkpt lat="47.99034" lon="7.00176">
        <ele>1119.35</ele>
        <time>2021-01-26T11:00:18.000Z</time>
      </trkpt>
      <trkpt lat="47.99028" lon="7.00162">
        <ele>1122.78</ele>
        <time>2021-01-26T11:00:35.000Z</time>
      </trkpt>
      <trkpt lat="47.99018" lon="7.00164">
        <ele>1126.58</ele>
        <time>2021-01-26T11:01:05.000Z</time>
      </trkpt>
      <trkpt lat="47.99017" lon="7.00178">
        <ele>1127.95</ele>
        <time>2021-01-26T11:01:43.000Z</time>
      </trkpt>
      <trkpt lat="47.99009" lon="7.00193">
        <ele>1129.48</ele>
        <time>2021-01-26T11:02:15.000Z</time>
      </trkpt>
      <trkpt lat="47.98999" lon="7.00202">
        <ele>1131.93</ele>
        <time>2021-01-26T11:02:34.000Z</time>
      </trkpt>
      <trkpt lat="47.98994" lon="7.00216">
        <ele>1136.15</ele>
        <time>2021-01-26T11:03:06.000Z</time>
      </trkpt>
      <trkpt lat="47.98993" lon="7.00232">
        <ele>1138.4</ele>
        <time>2021-01-26T11:03:27.000Z</time>
      </trkpt>
      <trkpt lat="47.98988" lon="7.00247">
        <ele>1140.35</ele>
        <time>2021-01-26T11:03:44.000Z</time>
      </trkpt>
      <trkpt lat="47.98982" lon="7.00264">
        <ele>1142.6</ele>
        <time>2021-01-26T11:03:59.000Z</time>
      </trkpt>
      <trkpt lat="47.9898" lon="7.0028">
        <ele>1144.63</ele>
        <time>2021-01-26T11:04:25.000Z</time>
      </trkpt>
      <trkpt lat="47.98976" lon="7.00296">
        <ele>1144.85</ele>
        <time>2021-01-26T11:04:44.000Z</time>
      </trkpt>
      <trkpt lat="47.98968" lon="7.00306">
        <ele>1145</ele>
        <time>2021-01-26T11:06:37.000Z</time>
      </trkpt>
      <trkpt lat="47.98958" lon="7.00315">
        <ele>1145.13</ele>
        <time>2021-01-26T11:06:57.000Z</time>
      </trkpt>
      <trkpt lat="47.9895" lon="7.00311">
        <ele>1145.23</ele>
        <time>2021-01-26T11:07:57.000Z</time>
      </trkpt>
      <trkpt lat="47.98945" lon="7.00298">
        <ele>1147.9</ele>
        <time>2021-01-26T11:09:07.000Z</time>
      </trkpt>
      <trkpt lat="47.9894" lon="7.00282">
        <ele>1152.03</ele>
        <time>2021-01-26T11:09:26.000Z</time>
      </trkpt>
      <trkpt lat="47.98936" lon="7.00266">
        <ele>1153.6</ele>
        <time>2021-01-26T11:09:44.000Z</time>
      </trkpt>
      <trkpt lat="47.98929" lon="7.00251">
        <ele>1154.18</ele>
        <time>2021-01-26T11:09:59.000Z</time>
      </trkpt>
      <trkpt lat="47.98924" lon="7.00235">
        <ele>1155.05</ele>
        <time>2021-01-26T11:10:14.000Z</time>
      </trkpt>
      <trkpt lat="47.98918" lon="7.00221">
        <ele>1155.5</ele>
        <time>2021-01-26T11:10:28.000Z</time>
      </trkpt>
      <trkpt lat="47.98912" lon="7.00208">
        <ele>1155.25</ele>
        <time>2021-01-26T11:12:04.000Z</time>
      </trkpt>
      <trkpt lat="47.9892" lon="7.00214">
        <ele>1154.72</ele>
        <time>2021-01-26T11:12:10.000Z</time>
      </trkpt>
      <trkpt lat="47.98912" lon="7.00204">
        <ele>1153.9</ele>
        <time>2021-01-26T11:12:19.000Z</time>
      </trkpt>
      <trkpt lat="47.98913" lon="7.00218">
        <ele>1153.92</ele>
        <time>2021-01-26T11:12:30.000Z</time>
      </trkpt>
      <trkpt lat="47.98916" lon="7.00203">
        <ele>1151.23</ele>
        <time>2021-01-26T11:12:51.000Z</time>
      </trkpt>
      <trkpt lat="47.989" lon="7.00195">
        <ele>1150.43</ele>
        <time>2021-01-26T11:14:13.000Z</time>
      </trkpt>
      <trkpt lat="47.98891" lon="7.00183">
        <ele>1150.1</ele>
        <time>2021-01-26T11:14:28.000Z</time>
      </trkpt>
      <trkpt lat="47.98881" lon="7.00173">
        <ele>1149.65</ele>
        <time>2021-01-26T11:14:42.000Z</time>
      </trkpt>
      <trkpt lat="47.98871" lon="7.00162">
        <ele>1149.15</ele>
        <time>2021-01-26T11:14:56.000Z</time>
      </trkpt>
      <trkpt lat="47.9886" lon="7.00151">
        <ele>1148.43</ele>
        <time>2021-01-26T11:15:10.000Z</time>
      </trkpt>
      <trkpt lat="47.98849" lon="7.00142">
        <ele>1147.78</ele>
        <time>2021-01-26T11:15:25.000Z</time>
      </trkpt>
      <trkpt lat="47.98839" lon="7.00131">
        <ele>1147.3</ele>
        <time>2021-01-26T11:15:37.000Z</time>
      </trkpt>
      <trkpt lat="47.98831" lon="7.00125">
        <ele>1147.55</ele>
        <time>2021-01-26T11:15:54.000Z</time>
      </trkpt>
      <trkpt lat="47.98838" lon="7.00115">
        <ele>1148</ele>
        <time>2021-01-26T11:16:44.000Z</time>
      </trkpt>
      <trkpt lat="47.98818" lon="7.00124">
        <ele>1148.52</ele>
        <time>2021-01-26T11:16:49.000Z</time>
      </trkpt>
      <trkpt lat="47.98821" lon="7.00111">
        <ele>1150.7</ele>
        <time>2021-01-26T11:17:13.000Z</time>
      </trkpt>
      <trkpt lat="47.98815" lon="7.00099">
        <ele>1152.38</ele>
        <time>2021-01-26T11:17:32.000Z</time>
      </trkpt>
      <trkpt lat="47.98805" lon="7.00088">
        <ele>1153.58</ele>
        <time>2021-01-26T11:17:46.000Z</time>
      </trkpt>
      <trkpt lat="47.98795" lon="7.00077">
        <ele>1153.93</ele>
        <time>2021-01-26T11:19:05.000Z</time>
      </trkpt>
      <trkpt lat="47.98788" lon="7.00066">
        <ele>1153.25</ele>
        <time>2021-01-26T11:19:18.000Z</time>
      </trkpt>
      <trkpt lat="47.98781" lon="7.00053">
        <ele>1152.08</ele>
        <time>2021-01-26T11:19:31.000Z</time>
      </trkpt>
      <trkpt lat="47.98777" lon="7.00037">
        <ele>1150.94</ele>
        <time>2021-01-26T11:19:37.000Z</time>
      </trkpt>
      <trkpt lat="47.9877" lon="7.00022">
        <ele>1149.73</ele>
        <time>2021-01-26T11:19:52.000Z</time>
      </trkpt>
      <trkpt lat="47.98761" lon="7.0001">
        <ele>1148.65</ele>
        <time>2021-01-26T11:20:05.000Z</time>
      </trkpt>
      <trkpt lat="47.98752" lon="6.99998">
        <ele>1147.5</ele>
        <time>2021-01-26T11:20:18.000Z</time>
      </trkpt>
      <trkpt lat="47.98742" lon="6.9999">
        <ele>1147.43</ele>
        <time>2021-01-26T11:20:33.000Z</time>
      </trkpt>
      <trkpt lat="47.98733" lon="6.99987">
        <ele>1147.71</ele>
        <time>2021-01-26T11:20:53.000Z</time>
      </trkpt>
      <trkpt lat="47.98732" lon="6.99973">
        <ele>1145.85</ele>
        <time>2021-01-26T11:21:06.000Z</time>
      </trkpt>
      <trkpt lat="47.98723" lon="6.99978">
        <ele>1147.53</ele>
        <time>2021-01-26T11:21:21.000Z</time>
      </trkpt>
      <trkpt lat="47.98713" lon="6.99976">
        <ele>1148.7</ele>
        <time>2021-01-26T11:21:33.000Z</time>
      </trkpt>
      <trkpt lat="47.98704" lon="6.99974">
        <ele>1149.85</ele>
        <time>2021-01-26T11:21:44.000Z</time>
      </trkpt>
      <trkpt lat="47.98691" lon="6.9997">
        <ele>1151.05</ele>
        <time>2021-01-26T11:21:58.000Z</time>
      </trkpt>
      <trkpt lat="47.9868" lon="6.99966">
        <ele>1152.2</ele>
        <time>2021-01-26T11:22:12.000Z</time>
      </trkpt>
      <trkpt lat="47.98667" lon="6.99956">
        <ele>1153.08</ele>
        <time>2021-01-26T11:22:29.000Z</time>
      </trkpt>
      <trkpt lat="47.98656" lon="6.99947">
        <ele>1152.78</ele>
        <time>2021-01-26T11:22:43.000Z</time>
      </trkpt>
      <trkpt lat="47.98645" lon="6.99942">
        <ele>1152.65</ele>
        <time>2021-01-26T11:22:56.000Z</time>
      </trkpt>
      <trkpt lat="47.98631" lon="6.99935">
        <ele>1150.85</ele>
        <time>2021-01-26T11:23:17.000Z</time>
      </trkpt>
      <trkpt lat="47.98618" lon="6.99928">
        <ele>1148.93</ele>
        <time>2021-01-26T11:23:34.000Z</time>
      </trkpt>
      <trkpt lat="47.98611" lon="6.99918">
        <ele>1148.54</ele>
        <time>2021-01-26T11:24:56.000Z</time>
      </trkpt>
      <trkpt lat="47.98602" lon="6.99915">
        <ele>1148.43</ele>
        <time>2021-01-26T11:25:04.000Z</time>
      </trkpt>
      <trkpt lat="47.9859" lon="6.99908">
        <ele>1148.15</ele>
        <time>2021-01-26T11:25:18.000Z</time>
      </trkpt>
      <trkpt lat="47.9858" lon="6.99906">
        <ele>1147.6</ele>
        <time>2021-01-26T11:25:28.000Z</time>
      </trkpt>
      <trkpt lat="47.98574" lon="6.99896">
        <ele>1146.78</ele>
        <time>2021-01-26T11:25:35.000Z</time>
      </trkpt>
      <trkpt lat="47.98567" lon="6.99887">
        <ele>1147.03</ele>
        <time>2021-01-26T11:25:42.000Z</time>
      </trkpt>
      <trkpt lat="47.9856" lon="6.99877">
        <ele>1147.76</ele>
        <time>2021-01-26T11:25:52.000Z</time>
      </trkpt>
      <trkpt lat="47.98554" lon="6.99867">
        <ele>1147.48</ele>
        <time>2021-01-26T11:26:01.000Z</time>
      </trkpt>
      <trkpt lat="47.98547" lon="6.99857">
        <ele>1147.22</ele>
        <time>2021-01-26T11:26:15.000Z</time>
      </trkpt>
      <trkpt lat="47.9854" lon="6.99847">
        <ele>1147.73</ele>
        <time>2021-01-26T11:26:23.000Z</time>
      </trkpt>
      <trkpt lat="47.98531" lon="6.99838">
        <ele>1148.25</ele>
        <time>2021-01-26T11:26:34.000Z</time>
      </trkpt>
      <trkpt lat="47.98523" lon="6.9983">
        <ele>1149.05</ele>
        <time>2021-01-26T11:26:43.000Z</time>
      </trkpt>
      <trkpt lat="47.98514" lon="6.9982">
        <ele>1149.9</ele>
        <time>2021-01-26T11:26:55.000Z</time>
      </trkpt>
      <trkpt lat="47.98506" lon="6.99812">
        <ele>1149.86</ele>
        <time>2021-01-26T11:27:04.000Z</time>
      </trkpt>
      <trkpt lat="47.98498" lon="6.99805">
        <ele>1149.45</ele>
        <time>2021-01-26T11:27:13.000Z</time>
      </trkpt>
      <trkpt lat="47.98487" lon="6.99795">
        <ele>1149.78</ele>
        <time>2021-01-26T11:27:31.000Z</time>
      </trkpt>
      <trkpt lat="47.9848" lon="6.99785">
        <ele>1150.25</ele>
        <time>2021-01-26T11:27:41.000Z</time>
      </trkpt>
      <trkpt lat="47.98473" lon="6.99775">
        <ele>1150.18</ele>
        <time>2021-01-26T11:27:51.000Z</time>
      </trkpt>
      <trkpt lat="47.98465" lon="6.99767">
        <ele>1149.86</ele>
        <time>2021-01-26T11:27:59.000Z</time>
      </trkpt>
      <trkpt lat="47.98458" lon="6.99759">
        <ele>1148.94</ele>
        <time>2021-01-26T11:28:05.000Z</time>
      </trkpt>
      <trkpt lat="47.98449" lon="6.99754">
        <ele>1148.43</ele>
        <time>2021-01-26T11:28:12.000Z</time>
      </trkpt>
      <trkpt lat="47.98439" lon="6.99748">
        <ele>1148.56</ele>
        <time>2021-01-26T11:28:20.000Z</time>
      </trkpt>
      <trkpt lat="47.98431" lon="6.9974">
        <ele>1147.71</ele>
        <time>2021-01-26T11:28:27.000Z</time>
      </trkpt>
      <trkpt lat="47.98423" lon="6.99733">
        <ele>1145.38</ele>
        <time>2021-01-26T11:28:35.000Z</time>
      </trkpt>
      <trkpt lat="47.98416" lon="6.99724">
        <ele>1144.58</ele>
        <time>2021-01-26T11:28:41.000Z</time>
      </trkpt>
      <trkpt lat="47.98409" lon="6.99713">
        <ele>1143.45</ele>
        <time>2021-01-26T11:28:47.000Z</time>
      </trkpt>
      <trkpt lat="47.98401" lon="6.99705">
        <ele>1142.18</ele>
        <time>2021-01-26T11:28:52.000Z</time>
      </trkpt>
      <trkpt lat="47.98393" lon="6.99697">
        <ele>1139.97</ele>
        <time>2021-01-26T11:28:59.000Z</time>
      </trkpt>
      <trkpt lat="47.98385" lon="6.99689">
        <ele>1138.84</ele>
        <time>2021-01-26T11:29:05.000Z</time>
      </trkpt>
      <trkpt lat="47.98378" lon="6.99681">
        <ele>1137.42</ele>
        <time>2021-01-26T11:29:11.000Z</time>
      </trkpt>
      <trkpt lat="47.9837" lon="6.99673">
        <ele>1136.63</ele>
        <time>2021-01-26T11:29:20.000Z</time>
      </trkpt>
      <trkpt lat="47.98362" lon="6.99664">
        <ele>1135.39</ele>
        <time>2021-01-26T11:29:27.000Z</time>
      </trkpt>
      <trkpt lat="47.98355" lon="6.99655">
        <ele>1134.24</ele>
        <time>2021-01-26T11:29:35.000Z</time>
      </trkpt>
      <trkpt lat="47.98348" lon="6.99646">
        <ele>1134.46</ele>
        <time>2021-01-26T11:29:43.000Z</time>
      </trkpt>
      <trkpt lat="47.98339" lon="6.99636">
        <ele>1136.15</ele>
        <time>2021-01-26T11:29:53.000Z</time>
      </trkpt>
      <trkpt lat="47.98329" lon="6.99625">
        <ele>1137.15</ele>
        <time>2021-01-26T11:30:07.000Z</time>
      </trkpt>
      <trkpt lat="47.98316" lon="6.99613">
        <ele>1138.53</ele>
        <time>2021-01-26T11:30:23.000Z</time>
      </trkpt>
      <trkpt lat="47.98308" lon="6.99605">
        <ele>1138.65</ele>
        <time>2021-01-26T11:30:31.000Z</time>
      </trkpt>
      <trkpt lat="47.98301" lon="6.99595">
        <ele>1138.28</ele>
        <time>2021-01-26T11:30:38.000Z</time>
      </trkpt>
      <trkpt lat="47.98294" lon="6.99586">
        <ele>1137.27</ele>
        <time>2021-01-26T11:30:46.000Z</time>
      </trkpt>
      <trkpt lat="47.98285" lon="6.99578">
        <ele>1136.17</ele>
        <time>2021-01-26T11:30:54.000Z</time>
      </trkpt>
      <trkpt lat="47.98277" lon="6.99572">
        <ele>1136.35</ele>
        <time>2021-01-26T11:31:03.000Z</time>
      </trkpt>
      <trkpt lat="47.98267" lon="6.99564">
        <ele>1136.05</ele>
        <time>2021-01-26T11:31:14.000Z</time>
      </trkpt>
      <trkpt lat="47.9826" lon="6.99554">
        <ele>1136.33</ele>
        <time>2021-01-26T11:31:25.000Z</time>
      </trkpt>
      <trkpt lat="47.98253" lon="6.99544">
        <ele>1136.6</ele>
        <time>2021-01-26T11:31:34.000Z</time>
      </trkpt>
      <trkpt lat="47.98245" lon="6.99536">
        <ele>1136.56</ele>
        <time>2021-01-26T11:31:43.000Z</time>
      </trkpt>
      <trkpt lat="47.98237" lon="6.99528">
        <ele>1136.06</ele>
        <time>2021-01-26T11:31:52.000Z</time>
      </trkpt>
      <trkpt lat="47.98229" lon="6.9952">
        <ele>1136.77</ele>
        <time>2021-01-26T11:32:01.000Z</time>
      </trkpt>
      <trkpt lat="47.9822" lon="6.9951">
        <ele>1138.3</ele>
        <time>2021-01-26T11:32:12.000Z</time>
      </trkpt>
      <trkpt lat="47.98213" lon="6.99501">
        <ele>1138.95</ele>
        <time>2021-01-26T11:32:21.000Z</time>
      </trkpt>
      <trkpt lat="47.98207" lon="6.99492">
        <ele>1137.97</ele>
        <time>2021-01-26T11:32:30.000Z</time>
      </trkpt>
      <trkpt lat="47.98195" lon="6.99481">
        <ele>1137.88</ele>
        <time>2021-01-26T11:32:46.000Z</time>
      </trkpt>
      <trkpt lat="47.98182" lon="6.99463">
        <ele>1139.38</ele>
        <time>2021-01-26T11:36:03.000Z</time>
      </trkpt>
      <trkpt lat="47.98173" lon="6.99454">
        <ele>1139.85</ele>
        <time>2021-01-26T11:36:13.000Z</time>
      </trkpt>
      <trkpt lat="47.98165" lon="6.99445">
        <ele>1139.15</ele>
        <time>2021-01-26T11:36:53.000Z</time>
      </trkpt>
      <trkpt lat="47.98157" lon="6.99435">
        <ele>1139.74</ele>
        <time>2021-01-26T11:37:01.000Z</time>
      </trkpt>
      <trkpt lat="47.98149" lon="6.99426">
        <ele>1139.86</ele>
        <time>2021-01-26T11:37:08.000Z</time>
      </trkpt>
      <trkpt lat="47.98141" lon="6.99418">
        <ele>1139.54</ele>
        <time>2021-01-26T11:37:16.000Z</time>
      </trkpt>
      <trkpt lat="47.98128" lon="6.99401">
        <ele>1137.9</ele>
        <time>2021-01-26T11:37:48.000Z</time>
      </trkpt>
      <trkpt lat="47.9812" lon="6.99395">
        <ele>1137.19</ele>
        <time>2021-01-26T11:37:57.000Z</time>
      </trkpt>
      <trkpt lat="47.98111" lon="6.9939">
        <ele>1136.19</ele>
        <time>2021-01-26T11:38:07.000Z</time>
      </trkpt>
      <trkpt lat="47.98102" lon="6.99384">
        <ele>1135.29</ele>
        <time>2021-01-26T11:38:17.000Z</time>
      </trkpt>
      <trkpt lat="47.98095" lon="6.99375">
        <ele>1134.83</ele>
        <time>2021-01-26T11:38:26.000Z</time>
      </trkpt>
      <trkpt lat="47.98088" lon="6.99367">
        <ele>1134.26</ele>
        <time>2021-01-26T11:38:36.000Z</time>
      </trkpt>
      <trkpt lat="47.98081" lon="6.99358">
        <ele>1133.94</ele>
        <time>2021-01-26T11:38:45.000Z</time>
      </trkpt>
      <trkpt lat="47.98071" lon="6.99344">
        <ele>1133.75</ele>
        <time>2021-01-26T11:39:00.000Z</time>
      </trkpt>
      <trkpt lat="47.98063" lon="6.99326">
        <ele>1134.45</ele>
        <time>2021-01-26T11:39:14.000Z</time>
      </trkpt>
      <trkpt lat="47.98053" lon="6.99308">
        <ele>1137.5</ele>
        <time>2021-01-26T11:39:37.000Z</time>
      </trkpt>
      <trkpt lat="47.98045" lon="6.99295">
        <ele>1138.6</ele>
        <time>2021-01-26T11:39:51.000Z</time>
      </trkpt>
      <trkpt lat="47.98032" lon="6.99277">
        <ele>1140.95</ele>
        <time>2021-01-26T11:40:15.000Z</time>
      </trkpt>
      <trkpt lat="47.98022" lon="6.99267">
        <ele>1142.78</ele>
        <time>2021-01-26T11:40:31.000Z</time>
      </trkpt>
      <trkpt lat="47.98022" lon="6.99282">
        <ele>1142.91</ele>
        <time>2021-01-26T11:40:57.000Z</time>
      </trkpt>
      <trkpt lat="47.98021" lon="6.9926">
        <ele>1142.75</ele>
        <time>2021-01-26T11:41:18.000Z</time>
      </trkpt>
      <trkpt lat="47.9801" lon="6.99254">
        <ele>1146.78</ele>
        <time>2021-01-26T11:41:45.000Z</time>
      </trkpt>
      <trkpt lat="47.97995" lon="6.99241">
        <ele>1153.4</ele>
        <time>2021-01-26T11:42:13.000Z</time>
      </trkpt>
      <trkpt lat="47.97985" lon="6.99233">
        <ele>1155.75</ele>
        <time>2021-01-26T11:42:29.000Z</time>
      </trkpt>
      <trkpt lat="47.97975" lon="6.99223">
        <ele>1157.55</ele>
        <time>2021-01-26T11:42:46.000Z</time>
      </trkpt>
      <trkpt lat="47.97966" lon="6.99213">
        <ele>1159.63</ele>
        <time>2021-01-26T11:42:59.000Z</time>
      </trkpt>
      <trkpt lat="47.9795" lon="6.992">
        <ele>1162.48</ele>
        <time>2021-01-26T11:43:20.000Z</time>
      </trkpt>
      <trkpt lat="47.97953" lon="6.99215">
        <ele>1163.73</ele>
        <time>2021-01-26T11:44:02.000Z</time>
      </trkpt>
      <trkpt lat="47.97946" lon="6.99205">
        <ele>1163.55</ele>
        <time>2021-01-26T11:44:08.000Z</time>
      </trkpt>
      <trkpt lat="47.97939" lon="6.9918">
        <ele>1164.21</ele>
        <time>2021-01-26T11:44:13.000Z</time>
      </trkpt>
      <trkpt lat="47.97934" lon="6.99168">
        <ele>1167.68</ele>
        <time>2021-01-26T11:44:24.000Z</time>
      </trkpt>
      <trkpt lat="47.97927" lon="6.99157">
        <ele>1169.55</ele>
        <time>2021-01-26T11:44:38.000Z</time>
      </trkpt>
      <trkpt lat="47.97918" lon="6.99147">
        <ele>1171.63</ele>
        <time>2021-01-26T11:44:54.000Z</time>
      </trkpt>
      <trkpt lat="47.97907" lon="6.99139">
        <ele>1173.75</ele>
        <time>2021-01-26T11:45:06.000Z</time>
      </trkpt>
      <trkpt lat="47.97903" lon="6.99126">
        <ele>1174.05</ele>
        <time>2021-01-26T11:45:20.000Z</time>
      </trkpt>
      <trkpt lat="47.97899" lon="6.99113">
        <ele>1171.44</ele>
        <time>2021-01-26T11:45:25.000Z</time>
      </trkpt>
      <trkpt lat="47.97891" lon="6.99095">
        <ele>1165.28</ele>
        <time>2021-01-26T11:45:45.000Z</time>
      </trkpt>
      <trkpt lat="47.97892" lon="6.99109">
        <ele>1159.7</ele>
        <time>2021-01-26T11:46:23.000Z</time>
      </trkpt>
      <trkpt lat="47.97888" lon="6.99096">
        <ele>1157.48</ele>
        <time>2021-01-26T11:46:30.000Z</time>
      </trkpt>
      <trkpt lat="47.97886" lon="6.99076">
        <ele>1157.95</ele>
        <time>2021-01-26T11:46:35.000Z</time>
      </trkpt>
      <trkpt lat="47.97881" lon="6.99065">
        <ele>1162.22</ele>
        <time>2021-01-26T11:46:56.000Z</time>
      </trkpt>
      <trkpt lat="47.9787" lon="6.9906">
        <ele>1166.7</ele>
        <time>2021-01-26T11:47:45.000Z</time>
      </trkpt>
      <trkpt lat="47.97859" lon="6.99059">
        <ele>1167.53</ele>
        <time>2021-01-26T11:48:01.000Z</time>
      </trkpt>
      <trkpt lat="47.97849" lon="6.99054">
        <ele>1167.9</ele>
        <time>2021-01-26T11:48:21.000Z</time>
      </trkpt>
      <trkpt lat="47.97839" lon="6.99049">
        <ele>1166.55</ele>
        <time>2021-01-26T11:48:44.000Z</time>
      </trkpt>
      <trkpt lat="47.97828" lon="6.99042">
        <ele>1164.65</ele>
        <time>2021-01-26T11:49:01.000Z</time>
      </trkpt>
      <trkpt lat="47.97818" lon="6.99036">
        <ele>1163.28</ele>
        <time>2021-01-26T11:49:17.000Z</time>
      </trkpt>
      <trkpt lat="47.97807" lon="6.99028">
        <ele>1162.48</ele>
        <time>2021-01-26T11:49:33.000Z</time>
      </trkpt>
      <trkpt lat="47.97797" lon="6.99021">
        <ele>1162.28</ele>
        <time>2021-01-26T11:49:49.000Z</time>
      </trkpt>
      <trkpt lat="47.97788" lon="6.9901">
        <ele>1162.48</ele>
        <time>2021-01-26T11:50:04.000Z</time>
      </trkpt>
      <trkpt lat="47.97782" lon="6.98996">
        <ele>1162.85</ele>
        <time>2021-01-26T11:50:18.000Z</time>
      </trkpt>
      <trkpt lat="47.97776" lon="6.98985">
        <ele>1163.92</ele>
        <time>2021-01-26T11:50:28.000Z</time>
      </trkpt>
      <trkpt lat="47.97769" lon="6.9897">
        <ele>1165.35</ele>
        <time>2021-01-26T11:50:45.000Z</time>
      </trkpt>
      <trkpt lat="47.97767" lon="6.98954">
        <ele>1165.08</ele>
        <time>2021-01-26T11:51:04.000Z</time>
      </trkpt>
      <trkpt lat="47.97766" lon="6.9894">
        <ele>1166.13</ele>
        <time>2021-01-26T11:51:13.000Z</time>
      </trkpt>
      <trkpt lat="47.97764" lon="6.98925">
        <ele>1169.64</ele>
        <time>2021-01-26T11:51:23.000Z</time>
      </trkpt>
      <trkpt lat="47.97766" lon="6.98911">
        <ele>1171.93</ele>
        <time>2021-01-26T11:51:35.000Z</time>
      </trkpt>
      <trkpt lat="47.97773" lon="6.98902">
        <ele>1172.95</ele>
        <time>2021-01-26T11:52:00.000Z</time>
      </trkpt>
      <trkpt lat="47.97776" lon="6.98887">
        <ele>1172.73</ele>
        <time>2021-01-26T11:52:37.000Z</time>
      </trkpt>
      <trkpt lat="47.97778" lon="6.98873">
        <ele>1172.31</ele>
        <time>2021-01-26T11:52:45.000Z</time>
      </trkpt>
      <trkpt lat="47.97781" lon="6.9886">
        <ele>1172.44</ele>
        <time>2021-01-26T11:52:52.000Z</time>
      </trkpt>
      <trkpt lat="47.97786" lon="6.98848">
        <ele>1171.89</ele>
        <time>2021-01-26T11:52:58.000Z</time>
      </trkpt>
      <trkpt lat="47.97789" lon="6.98836">
        <ele>1171.62</ele>
        <time>2021-01-26T11:53:05.000Z</time>
      </trkpt>
      <trkpt lat="47.97793" lon="6.98822">
        <ele>1170.07</ele>
        <time>2021-01-26T11:53:12.000Z</time>
      </trkpt>
      <trkpt lat="47.97795" lon="6.98808">
        <ele>1168.29</ele>
        <time>2021-01-26T11:53:20.000Z</time>
      </trkpt>
      <trkpt lat="47.97798" lon="6.98794">
        <ele>1167.99</ele>
        <time>2021-01-26T11:53:28.000Z</time>
      </trkpt>
      <trkpt lat="47.978" lon="6.9878">
        <ele>1167.02</ele>
        <time>2021-01-26T11:53:36.000Z</time>
      </trkpt>
      <trkpt lat="47.97805" lon="6.98768">
        <ele>1165.35</ele>
        <time>2021-01-26T11:53:43.000Z</time>
      </trkpt>
      <trkpt lat="47.9781" lon="6.98754">
        <ele>1163.69</ele>
        <time>2021-01-26T11:53:50.000Z</time>
      </trkpt>
      <trkpt lat="47.97814" lon="6.98742">
        <ele>1162.7</ele>
        <time>2021-01-26T11:53:58.000Z</time>
      </trkpt>
      <trkpt lat="47.97818" lon="6.98729">
        <ele>1163.02</ele>
        <time>2021-01-26T11:54:05.000Z</time>
      </trkpt>
      <trkpt lat="47.97823" lon="6.98717">
        <ele>1162.17</ele>
        <time>2021-01-26T11:54:12.000Z</time>
      </trkpt>
      <trkpt lat="47.97827" lon="6.98704">
        <ele>1161.25</ele>
        <time>2021-01-26T11:54:19.000Z</time>
      </trkpt>
      <trkpt lat="47.97833" lon="6.98693">
        <ele>1160.91</ele>
        <time>2021-01-26T11:54:26.000Z</time>
      </trkpt>
      <trkpt lat="47.97838" lon="6.9868">
        <ele>1159.99</ele>
        <time>2021-01-26T11:54:34.000Z</time>
      </trkpt>
      <trkpt lat="47.97843" lon="6.98669">
        <ele>1159.49</ele>
        <time>2021-01-26T11:54:42.000Z</time>
      </trkpt>
      <trkpt lat="47.97849" lon="6.98657">
        <ele>1159.26</ele>
        <time>2021-01-26T11:54:50.000Z</time>
      </trkpt>
      <trkpt lat="47.97854" lon="6.98645">
        <ele>1159.08</ele>
        <time>2021-01-26T11:54:58.000Z</time>
      </trkpt>
      <trkpt lat="47.9786" lon="6.98633">
        <ele>1158.64</ele>
        <time>2021-01-26T11:55:06.000Z</time>
      </trkpt>
      <trkpt lat="47.97866" lon="6.98621">
        <ele>1157.52</ele>
        <time>2021-01-26T11:55:14.000Z</time>
      </trkpt>
      <trkpt lat="47.97871" lon="6.98608">
        <ele>1156.28</ele>
        <time>2021-01-26T11:55:22.000Z</time>
      </trkpt>
      <trkpt lat="47.97874" lon="6.98594">
        <ele>1155.75</ele>
        <time>2021-01-26T11:55:30.000Z</time>
      </trkpt>
      <trkpt lat="47.97875" lon="6.9858">
        <ele>1154.15</ele>
        <time>2021-01-26T11:55:38.000Z</time>
      </trkpt>
      <trkpt lat="47.97877" lon="6.98567">
        <ele>1154.04</ele>
        <time>2021-01-26T11:55:45.000Z</time>
      </trkpt>
      <trkpt lat="47.97887" lon="6.98555">
        <ele>1153.56</ele>
        <time>2021-01-26T11:56:13.000Z</time>
      </trkpt>
      <trkpt lat="47.97897" lon="6.9855">
        <ele>1150.83</ele>
        <time>2021-01-26T11:57:42.000Z</time>
      </trkpt>
      <trkpt lat="47.97905" lon="6.98541">
        <ele>1150.56</ele>
        <time>2021-01-26T11:57:50.000Z</time>
      </trkpt>
      <trkpt lat="47.97911" lon="6.98531">
        <ele>1150.02</ele>
        <time>2021-01-26T11:58:01.000Z</time>
      </trkpt>
      <trkpt lat="47.97924" lon="6.98522">
        <ele>1148.56</ele>
        <time>2021-01-26T11:58:15.000Z</time>
      </trkpt>
      <trkpt lat="47.97934" lon="6.98517">
        <ele>1147.96</ele>
        <time>2021-01-26T11:58:22.000Z</time>
      </trkpt>
      <trkpt lat="47.97944" lon="6.98513">
        <ele>1148.15</ele>
        <time>2021-01-26T11:58:29.000Z</time>
      </trkpt>
      <trkpt lat="47.97953" lon="6.98508">
        <ele>1148.08</ele>
        <time>2021-01-26T11:58:36.000Z</time>
      </trkpt>
      <trkpt lat="47.97961" lon="6.98503">
        <ele>1147.64</ele>
        <time>2021-01-26T11:58:43.000Z</time>
      </trkpt>
      <trkpt lat="47.9797" lon="6.98497">
        <ele>1145.9</ele>
        <time>2021-01-26T11:58:50.000Z</time>
      </trkpt>
      <trkpt lat="47.97979" lon="6.98493">
        <ele>1145.15</ele>
        <time>2021-01-26T11:59:39.000Z</time>
      </trkpt>
      <trkpt lat="47.97987" lon="6.98486">
        <ele>1147.51</ele>
        <time>2021-01-26T12:00:20.000Z</time>
      </trkpt>
      <trkpt lat="47.97991" lon="6.98474">
        <ele>1146.93</ele>
        <time>2021-01-26T12:00:29.000Z</time>
      </trkpt>
      <trkpt lat="47.9799" lon="6.98456">
        <ele>1146.01</ele>
        <time>2021-01-26T12:00:54.000Z</time>
      </trkpt>
      <trkpt lat="47.97992" lon="6.98442">
        <ele>1145.07</ele>
        <time>2021-01-26T12:01:04.000Z</time>
      </trkpt>
      <trkpt lat="47.97998" lon="6.98431">
        <ele>1145.15</ele>
        <time>2021-01-26T12:01:13.000Z</time>
      </trkpt>
      <trkpt lat="47.98005" lon="6.98422">
        <ele>1145.58</ele>
        <time>2021-01-26T12:01:23.000Z</time>
      </trkpt>
      <trkpt lat="47.98014" lon="6.98414">
        <ele>1146.7</ele>
        <time>2021-01-26T12:01:33.000Z</time>
      </trkpt>
      <trkpt lat="47.98019" lon="6.98402">
        <ele>1146.82</ele>
        <time>2021-01-26T12:01:51.000Z</time>
      </trkpt>
      <trkpt lat="47.98022" lon="6.9839">
        <ele>1146.27</ele>
        <time>2021-01-26T12:01:59.000Z</time>
      </trkpt>
      <trkpt lat="47.98026" lon="6.98376">
        <ele>1146.36</ele>
        <time>2021-01-26T12:02:08.000Z</time>
      </trkpt>
      <trkpt lat="47.98032" lon="6.98394">
        <ele>1146.26</ele>
        <time>2021-01-26T12:02:33.000Z</time>
      </trkpt>
      <trkpt lat="47.98029" lon="6.98381">
        <ele>1145.39</ele>
        <time>2021-01-26T12:02:39.000Z</time>
      </trkpt>
      <trkpt lat="47.98032" lon="6.98368">
        <ele>1145.53</ele>
        <time>2021-01-26T12:02:52.000Z</time>
      </trkpt>
      <trkpt lat="47.98041" lon="6.98376">
        <ele>1148.27</ele>
        <time>2021-01-26T12:03:03.000Z</time>
      </trkpt>
      <trkpt lat="47.98049" lon="6.98382">
        <ele>1150.61</ele>
        <time>2021-01-26T12:03:13.000Z</time>
      </trkpt>
      <trkpt lat="47.98057" lon="6.98389">
        <ele>1153.09</ele>
        <time>2021-01-26T12:03:24.000Z</time>
      </trkpt>
      <trkpt lat="47.98066" lon="6.98396">
        <ele>1154.6</ele>
        <time>2021-01-26T12:03:35.000Z</time>
      </trkpt>
      <trkpt lat="47.98079" lon="6.98405">
        <ele>1156.96</ele>
        <time>2021-01-26T12:03:52.000Z</time>
      </trkpt>
      <trkpt lat="47.98088" lon="6.98405">
        <ele>1158.58</ele>
        <time>2021-01-26T12:04:02.000Z</time>
      </trkpt>
      <trkpt lat="47.981" lon="6.984">
        <ele>1159.71</ele>
        <time>2021-01-26T12:04:16.000Z</time>
      </trkpt>
      <trkpt lat="47.98111" lon="6.98394">
        <ele>1161.21</ele>
        <time>2021-01-26T12:04:30.000Z</time>
      </trkpt>
      <trkpt lat="47.9812" lon="6.98391">
        <ele>1162.16</ele>
        <time>2021-01-26T12:04:45.000Z</time>
      </trkpt>
      <trkpt lat="47.98132" lon="6.98387">
        <ele>1163.43</ele>
        <time>2021-01-26T12:05:05.000Z</time>
      </trkpt>
      <trkpt lat="47.98142" lon="6.98382">
        <ele>1164.13</ele>
        <time>2021-01-26T12:05:18.000Z</time>
      </trkpt>
      <trkpt lat="47.98154" lon="6.98379">
        <ele>1163.49</ele>
        <time>2021-01-26T12:05:29.000Z</time>
      </trkpt>
      <trkpt lat="47.98171" lon="6.98376">
        <ele>1164.39</ele>
        <time>2021-01-26T12:05:48.000Z</time>
      </trkpt>
      <trkpt lat="47.98184" lon="6.98374">
        <ele>1165.46</ele>
        <time>2021-01-26T12:06:03.000Z</time>
      </trkpt>
      <trkpt lat="47.98195" lon="6.98371">
        <ele>1166.46</ele>
        <time>2021-01-26T12:06:17.000Z</time>
      </trkpt>
      <trkpt lat="47.98205" lon="6.98368">
        <ele>1167.82</ele>
        <time>2021-01-26T12:06:28.000Z</time>
      </trkpt>
      <trkpt lat="47.98215" lon="6.98365">
        <ele>1168.61</ele>
        <time>2021-01-26T12:06:40.000Z</time>
      </trkpt>
      <trkpt lat="47.98226" lon="6.98359">
        <ele>1169.84</ele>
        <time>2021-01-26T12:06:54.000Z</time>
      </trkpt>
      <trkpt lat="47.98237" lon="6.98353">
        <ele>1170.96</ele>
        <time>2021-01-26T12:07:07.000Z</time>
      </trkpt>
      <trkpt lat="47.98249" lon="6.98348">
        <ele>1172.01</ele>
        <time>2021-01-26T12:07:21.000Z</time>
      </trkpt>
      <trkpt lat="47.98258" lon="6.98348">
        <ele>1172.63</ele>
        <time>2021-01-26T12:07:30.000Z</time>
      </trkpt>
      <trkpt lat="47.98273" lon="6.98341">
        <ele>1172.19</ele>
        <time>2021-01-26T12:07:50.000Z</time>
      </trkpt>
      <trkpt lat="47.98282" lon="6.98338">
        <ele>1172.46</ele>
        <time>2021-01-26T12:08:26.000Z</time>
      </trkpt>
      <trkpt lat="47.98298" lon="6.98338">
        <ele>1176.21</ele>
        <time>2021-01-26T12:08:49.000Z</time>
      </trkpt>
      <trkpt lat="47.9831" lon="6.98334">
        <ele>1179.49</ele>
        <time>2021-01-26T12:09:02.000Z</time>
      </trkpt>
      <trkpt lat="47.98325" lon="6.98329">
        <ele>1182.44</ele>
        <time>2021-01-26T12:09:22.000Z</time>
      </trkpt>
      <trkpt lat="47.98337" lon="6.98327">
        <ele>1182.11</ele>
        <time>2021-01-26T12:09:56.000Z</time>
      </trkpt>
      <trkpt lat="47.98346" lon="6.98324">
        <ele>1180.95</ele>
        <time>2021-01-26T12:10:04.000Z</time>
      </trkpt>
      <trkpt lat="47.98356" lon="6.9831">
        <ele>1180.74</ele>
        <time>2021-01-26T12:10:19.000Z</time>
      </trkpt>
      <trkpt lat="47.98362" lon="6.98299">
        <ele>1180.22</ele>
        <time>2021-01-26T12:10:30.000Z</time>
      </trkpt>
      <trkpt lat="47.98363" lon="6.98283">
        <ele>1180.26</ele>
        <time>2021-01-26T12:11:02.000Z</time>
      </trkpt>
      <trkpt lat="47.98363" lon="6.98267">
        <ele>1180.89</ele>
        <time>2021-01-26T12:13:20.000Z</time>
      </trkpt>
      <trkpt lat="47.98373" lon="6.98268">
        <ele>1186.79</ele>
        <time>2021-01-26T12:15:23.000Z</time>
      </trkpt>
      <trkpt lat="47.98373" lon="6.9824">
        <ele>1186.99</ele>
        <time>2021-01-26T12:15:28.000Z</time>
      </trkpt>
      <trkpt lat="47.9837" lon="6.98224">
        <ele>1186.02</ele>
        <time>2021-01-26T12:15:46.000Z</time>
      </trkpt>
      <trkpt lat="47.98364" lon="6.98213">
        <ele>1184.63</ele>
        <time>2021-01-26T12:15:51.000Z</time>
      </trkpt>
      <trkpt lat="47.98372" lon="6.9826">
        <ele>1184.37</ele>
        <time>2021-01-26T12:15:56.000Z</time>
      </trkpt>
      <trkpt lat="47.98374" lon="6.98279">
        <ele>1184.26</ele>
        <time>2021-01-26T12:16:01.000Z</time>
      </trkpt>
      <trkpt lat="47.98365" lon="6.98272">
        <ele>1183.01</ele>
        <time>2021-01-26T12:16:08.000Z</time>
      </trkpt>
      <trkpt lat="47.98366" lon="6.98287">
        <ele>1184</ele>
        <time>2021-01-26T12:16:23.000Z</time>
      </trkpt>
      <trkpt lat="47.98365" lon="6.98266">
        <ele>1193.44</ele>
        <time>2021-01-26T12:17:31.000Z</time>
      </trkpt>
      <trkpt lat="47.98368" lon="6.98239">
        <ele>1188.79</ele>
        <time>2021-01-26T12:18:13.000Z</time>
      </trkpt>
      <trkpt lat="47.98371" lon="6.98226">
        <ele>1187.29</ele>
        <time>2021-01-26T12:19:03.000Z</time>
      </trkpt>
      <trkpt lat="47.98363" lon="6.98237">
        <ele>1186.6</ele>
        <time>2021-01-26T12:19:10.000Z</time>
      </trkpt>
      <trkpt lat="47.98365" lon="6.98258">
        <ele>1186.11</ele>
        <time>2021-01-26T12:19:31.000Z</time>
      </trkpt>
      <trkpt lat="47.98366" lon="6.98273">
        <ele>1186.76</ele>
        <time>2021-01-26T12:20:39.000Z</time>
      </trkpt>
      <trkpt lat="47.98372" lon="6.98285">
        <ele>1188.05</ele>
        <time>2021-01-26T12:20:58.000Z</time>
      </trkpt>
      <trkpt lat="47.98375" lon="6.98302">
        <ele>1189.86</ele>
        <time>2021-01-26T12:21:38.000Z</time>
      </trkpt>
      <trkpt lat="47.98369" lon="6.98285">
        <ele>1192.62</ele>
        <time>2021-01-26T12:22:08.000Z</time>
      </trkpt>
      <trkpt lat="47.98364" lon="6.9825">
        <ele>1192.31</ele>
        <time>2021-01-26T12:22:13.000Z</time>
      </trkpt>
      <trkpt lat="47.98362" lon="6.98264">
        <ele>1191.31</ele>
        <time>2021-01-26T12:22:42.000Z</time>
      </trkpt>
      <trkpt lat="47.9837" lon="6.98258">
        <ele>1189.71</ele>
        <time>2021-01-26T12:25:17.000Z</time>
      </trkpt>
      <trkpt lat="47.98374" lon="6.98242">
        <ele>1188.03</ele>
        <time>2021-01-26T12:25:59.000Z</time>
      </trkpt>
      <trkpt lat="47.9838" lon="6.98224">
        <ele>1187.1</ele>
        <time>2021-01-26T12:26:04.000Z</time>
      </trkpt>
      <trkpt lat="47.9838" lon="6.9821">
        <ele>1186.06</ele>
        <time>2021-01-26T12:26:09.000Z</time>
      </trkpt>
      <trkpt lat="47.98373" lon="6.9822">
        <ele>1181.7</ele>
        <time>2021-01-26T12:26:20.000Z</time>
      </trkpt>
      <trkpt lat="47.98371" lon="6.98243">
        <ele>1181.82</ele>
        <time>2021-01-26T12:26:25.000Z</time>
      </trkpt>
      <trkpt lat="47.98369" lon="6.98271">
        <ele>1182.89</ele>
        <time>2021-01-26T12:26:30.000Z</time>
      </trkpt>
      <trkpt lat="47.98368" lon="6.98255">
        <ele>1193.27</ele>
        <time>2021-01-26T12:28:53.000Z</time>
      </trkpt>
      <trkpt lat="47.98362" lon="6.98241">
        <ele>1192.33</ele>
        <time>2021-01-26T12:28:58.000Z</time>
      </trkpt>
      <trkpt lat="47.98366" lon="6.98258">
        <ele>1189.67</ele>
        <time>2021-01-26T12:29:11.000Z</time>
      </trkpt>
      <trkpt lat="47.98368" lon="6.98273">
        <ele>1188.82</ele>
        <time>2021-01-26T12:29:16.000Z</time>
      </trkpt>
      <trkpt lat="47.9837" lon="6.98258">
        <ele>1202.76</ele>
        <time>2021-01-26T12:33:01.000Z</time>
      </trkpt>
      <trkpt lat="47.98371" lon="6.98241">
        <ele>1199.26</ele>
        <time>2021-01-26T12:35:48.000Z</time>
      </trkpt>
      <trkpt lat="47.98366" lon="6.98255">
        <ele>1191.14</ele>
        <time>2021-01-26T12:36:07.000Z</time>
      </trkpt>
      <trkpt lat="47.98374" lon="6.98271">
        <ele>1192.89</ele>
        <time>2021-01-26T12:40:11.000Z</time>
      </trkpt>
      <trkpt lat="47.98383" lon="6.98267">
        <ele>1189.57</ele>
        <time>2021-01-26T12:40:23.000Z</time>
      </trkpt>
      <trkpt lat="47.98384" lon="6.98253">
        <ele>1186.93</ele>
        <time>2021-01-26T12:40:33.000Z</time>
      </trkpt>
      <trkpt lat="47.98387" lon="6.98238">
        <ele>1185.27</ele>
        <time>2021-01-26T12:40:44.000Z</time>
      </trkpt>
      <trkpt lat="47.98394" lon="6.98226">
        <ele>1183.49</ele>
        <time>2021-01-26T12:40:52.000Z</time>
      </trkpt>
      <trkpt lat="47.98402" lon="6.98218">
        <ele>1181.24</ele>
        <time>2021-01-26T12:40:58.000Z</time>
      </trkpt>
      <trkpt lat="47.9841" lon="6.98209">
        <ele>1179.33</ele>
        <time>2021-01-26T12:41:06.000Z</time>
      </trkpt>
      <trkpt lat="47.98418" lon="6.98203">
        <ele>1178.46</ele>
        <time>2021-01-26T12:41:19.000Z</time>
      </trkpt>
      <trkpt lat="47.98426" lon="6.98197">
        <ele>1178.39</ele>
        <time>2021-01-26T12:41:39.000Z</time>
      </trkpt>
      <trkpt lat="47.98434" lon="6.9819">
        <ele>1178.97</ele>
        <time>2021-01-26T12:41:48.000Z</time>
      </trkpt>
      <trkpt lat="47.98442" lon="6.98182">
        <ele>1179.46</ele>
        <time>2021-01-26T12:41:57.000Z</time>
      </trkpt>
      <trkpt lat="47.98449" lon="6.98172">
        <ele>1179.56</ele>
        <time>2021-01-26T12:42:06.000Z</time>
      </trkpt>
      <trkpt lat="47.98456" lon="6.98163">
        <ele>1178.74</ele>
        <time>2021-01-26T12:42:14.000Z</time>
      </trkpt>
      <trkpt lat="47.98464" lon="6.98153">
        <ele>1178.32</ele>
        <time>2021-01-26T12:42:22.000Z</time>
      </trkpt>
      <trkpt lat="47.98471" lon="6.98143">
        <ele>1178.26</ele>
        <time>2021-01-26T12:42:34.000Z</time>
      </trkpt>
      <trkpt lat="47.98478" lon="6.98132">
        <ele>1177.89</ele>
        <time>2021-01-26T12:42:42.000Z</time>
      </trkpt>
      <trkpt lat="47.98484" lon="6.98122">
        <ele>1178.35</ele>
        <time>2021-01-26T12:42:51.000Z</time>
      </trkpt>
      <trkpt lat="47.98491" lon="6.98112">
        <ele>1179.04</ele>
        <time>2021-01-26T12:43:00.000Z</time>
      </trkpt>
      <trkpt lat="47.98497" lon="6.98103">
        <ele>1178.37</ele>
        <time>2021-01-26T12:43:08.000Z</time>
      </trkpt>
      <trkpt lat="47.98505" lon="6.98094">
        <ele>1177.77</ele>
        <time>2021-01-26T12:43:17.000Z</time>
      </trkpt>
      <trkpt lat="47.98512" lon="6.98083">
        <ele>1178.49</ele>
        <time>2021-01-26T12:43:26.000Z</time>
      </trkpt>
      <trkpt lat="47.98518" lon="6.98073">
        <ele>1180.84</ele>
        <time>2021-01-26T12:43:44.000Z</time>
      </trkpt>
      <trkpt lat="47.98526" lon="6.98067">
        <ele>1182.33</ele>
        <time>2021-01-26T12:45:03.000Z</time>
      </trkpt>
      <trkpt lat="47.98534" lon="6.9805">
        <ele>1182.04</ele>
        <time>2021-01-26T12:45:18.000Z</time>
      </trkpt>
      <trkpt lat="47.98543" lon="6.98038">
        <ele>1183.26</ele>
        <time>2021-01-26T12:45:33.000Z</time>
      </trkpt>
      <trkpt lat="47.98551" lon="6.98033">
        <ele>1184.88</ele>
        <time>2021-01-26T12:45:43.000Z</time>
      </trkpt>
      <trkpt lat="47.98561" lon="6.98029">
        <ele>1186.13</ele>
        <time>2021-01-26T12:45:53.000Z</time>
      </trkpt>
      <trkpt lat="47.9857" lon="6.98026">
        <ele>1186.93</ele>
        <time>2021-01-26T12:46:01.000Z</time>
      </trkpt>
      <trkpt lat="47.98579" lon="6.98025">
        <ele>1187.85</ele>
        <time>2021-01-26T12:46:09.000Z</time>
      </trkpt>
      <trkpt lat="47.98589" lon="6.98023">
        <ele>1188.31</ele>
        <time>2021-01-26T12:46:17.000Z</time>
      </trkpt>
      <trkpt lat="47.98599" lon="6.98022">
        <ele>1188.88</ele>
        <time>2021-01-26T12:46:26.000Z</time>
      </trkpt>
      <trkpt lat="47.98612" lon="6.9802">
        <ele>1188.91</ele>
        <time>2021-01-26T12:46:41.000Z</time>
      </trkpt>
      <trkpt lat="47.98622" lon="6.98016">
        <ele>1188.91</ele>
        <time>2021-01-26T12:46:50.000Z</time>
      </trkpt>
      <trkpt lat="47.98632" lon="6.98016">
        <ele>1189.27</ele>
        <time>2021-01-26T12:47:01.000Z</time>
      </trkpt>
      <trkpt lat="47.98647" lon="6.98013">
        <ele>1190.24</ele>
        <time>2021-01-26T12:47:19.000Z</time>
      </trkpt>
      <trkpt lat="47.98659" lon="6.98011">
        <ele>1190.77</ele>
        <time>2021-01-26T12:47:33.000Z</time>
      </trkpt>
      <trkpt lat="47.98668" lon="6.98005">
        <ele>1190.89</ele>
        <time>2021-01-26T12:47:43.000Z</time>
      </trkpt>
      <trkpt lat="47.98677" lon="6.98">
        <ele>1191.73</ele>
        <time>2021-01-26T12:47:51.000Z</time>
      </trkpt>
      <trkpt lat="47.98686" lon="6.98003">
        <ele>1192.24</ele>
        <time>2021-01-26T12:48:01.000Z</time>
      </trkpt>
      <trkpt lat="47.98702" lon="6.98003">
        <ele>1193.64</ele>
        <time>2021-01-26T12:48:15.000Z</time>
      </trkpt>
      <trkpt lat="47.98711" lon="6.98006">
        <ele>1193.84</ele>
        <time>2021-01-26T12:48:24.000Z</time>
      </trkpt>
      <trkpt lat="47.98721" lon="6.9801">
        <ele>1193.27</ele>
        <time>2021-01-26T12:48:33.000Z</time>
      </trkpt>
      <trkpt lat="47.98731" lon="6.9801">
        <ele>1192.52</ele>
        <time>2021-01-26T12:48:42.000Z</time>
      </trkpt>
      <trkpt lat="47.98741" lon="6.98011">
        <ele>1191.79</ele>
        <time>2021-01-26T12:48:53.000Z</time>
      </trkpt>
      <trkpt lat="47.98754" lon="6.98013">
        <ele>1192.47</ele>
        <time>2021-01-26T12:49:10.000Z</time>
      </trkpt>
      <trkpt lat="47.98766" lon="6.98018">
        <ele>1194.24</ele>
        <time>2021-01-26T12:50:38.000Z</time>
      </trkpt>
      <trkpt lat="47.98776" lon="6.98026">
        <ele>1195.47</ele>
        <time>2021-01-26T12:50:51.000Z</time>
      </trkpt>
      <trkpt lat="47.98786" lon="6.98032">
        <ele>1196.14</ele>
        <time>2021-01-26T12:51:05.000Z</time>
      </trkpt>
      <trkpt lat="47.98798" lon="6.98038">
        <ele>1197.24</ele>
        <time>2021-01-26T12:51:19.000Z</time>
      </trkpt>
      <trkpt lat="47.9881" lon="6.98041">
        <ele>1198.42</ele>
        <time>2021-01-26T12:51:33.000Z</time>
      </trkpt>
      <trkpt lat="47.9882" lon="6.98044">
        <ele>1199.24</ele>
        <time>2021-01-26T12:51:42.000Z</time>
      </trkpt>
      <trkpt lat="47.98829" lon="6.98047">
        <ele>1199.42</ele>
        <time>2021-01-26T12:51:53.000Z</time>
      </trkpt>
      <trkpt lat="47.98838" lon="6.98047">
        <ele>1199.96</ele>
        <time>2021-01-26T12:52:03.000Z</time>
      </trkpt>
      <trkpt lat="47.98848" lon="6.98049">
        <ele>1200.14</ele>
        <time>2021-01-26T12:52:13.000Z</time>
      </trkpt>
      <trkpt lat="47.98858" lon="6.98051">
        <ele>1200.14</ele>
        <time>2021-01-26T12:52:21.000Z</time>
      </trkpt>
      <trkpt lat="47.98868" lon="6.98051">
        <ele>1199.69</ele>
        <time>2021-01-26T12:52:29.000Z</time>
      </trkpt>
      <trkpt lat="47.9888" lon="6.98052">
        <ele>1199.42</ele>
        <time>2021-01-26T12:52:40.000Z</time>
      </trkpt>
      <trkpt lat="47.98893" lon="6.98053">
        <ele>1198.77</ele>
        <time>2021-01-26T12:52:53.000Z</time>
      </trkpt>
      <trkpt lat="47.98911" lon="6.98054">
        <ele>1200.67</ele>
        <time>2021-01-26T12:53:13.000Z</time>
      </trkpt>
      <trkpt lat="47.9892" lon="6.98054">
        <ele>1202.16</ele>
        <time>2021-01-26T12:53:21.000Z</time>
      </trkpt>
      <trkpt lat="47.98929" lon="6.98056">
        <ele>1203.24</ele>
        <time>2021-01-26T12:53:30.000Z</time>
      </trkpt>
      <trkpt lat="47.98939" lon="6.98058">
        <ele>1202.51</ele>
        <time>2021-01-26T12:53:38.000Z</time>
      </trkpt>
      <trkpt lat="47.98948" lon="6.9806">
        <ele>1201.38</ele>
        <time>2021-01-26T12:53:45.000Z</time>
      </trkpt>
      <trkpt lat="47.98958" lon="6.9806">
        <ele>1200.6</ele>
        <time>2021-01-26T12:53:55.000Z</time>
      </trkpt>
      <trkpt lat="47.98969" lon="6.98061">
        <ele>1201.12</ele>
        <time>2021-01-26T12:54:06.000Z</time>
      </trkpt>
      <trkpt lat="47.98986" lon="6.98064">
        <ele>1202.74</ele>
        <time>2021-01-26T12:54:27.000Z</time>
      </trkpt>
      <trkpt lat="47.98998" lon="6.98066">
        <ele>1204.69</ele>
        <time>2021-01-26T12:54:41.000Z</time>
      </trkpt>
      <trkpt lat="47.9901" lon="6.98066">
        <ele>1206.19</ele>
        <time>2021-01-26T12:54:54.000Z</time>
      </trkpt>
      <trkpt lat="47.99023" lon="6.98068">
        <ele>1207.32</ele>
        <time>2021-01-26T12:55:07.000Z</time>
      </trkpt>
      <trkpt lat="47.99032" lon="6.98069">
        <ele>1207.69</ele>
        <time>2021-01-26T12:55:15.000Z</time>
      </trkpt>
      <trkpt lat="47.99042" lon="6.9807">
        <ele>1207.77</ele>
        <time>2021-01-26T12:55:25.000Z</time>
      </trkpt>
      <trkpt lat="47.99054" lon="6.98075">
        <ele>1208.77</ele>
        <time>2021-01-26T12:55:41.000Z</time>
      </trkpt>
      <trkpt lat="47.99065" lon="6.98078">
        <ele>1210.02</ele>
        <time>2021-01-26T12:55:55.000Z</time>
      </trkpt>
      <trkpt lat="47.99078" lon="6.98079">
        <ele>1210.49</ele>
        <time>2021-01-26T12:56:09.000Z</time>
      </trkpt>
      <trkpt lat="47.99091" lon="6.98081">
        <ele>1210.44</ele>
        <time>2021-01-26T12:56:24.000Z</time>
      </trkpt>
      <trkpt lat="47.99103" lon="6.98085">
        <ele>1210.82</ele>
        <time>2021-01-26T12:56:39.000Z</time>
      </trkpt>
      <trkpt lat="47.99115" lon="6.98088">
        <ele>1211.67</ele>
        <time>2021-01-26T12:56:54.000Z</time>
      </trkpt>
      <trkpt lat="47.99127" lon="6.98089">
        <ele>1213.32</ele>
        <time>2021-01-26T12:57:07.000Z</time>
      </trkpt>
      <trkpt lat="47.99139" lon="6.98091">
        <ele>1214.87</ele>
        <time>2021-01-26T12:57:20.000Z</time>
      </trkpt>
      <trkpt lat="47.9915" lon="6.98091">
        <ele>1215.79</ele>
        <time>2021-01-26T12:57:36.000Z</time>
      </trkpt>
      <trkpt lat="47.99161" lon="6.9809">
        <ele>1216.49</ele>
        <time>2021-01-26T12:57:53.000Z</time>
      </trkpt>
      <trkpt lat="47.99173" lon="6.98088">
        <ele>1217.92</ele>
        <time>2021-01-26T12:58:08.000Z</time>
      </trkpt>
      <trkpt lat="47.99185" lon="6.98088">
        <ele>1220.12</ele>
        <time>2021-01-26T12:58:24.000Z</time>
      </trkpt>
      <trkpt lat="47.99197" lon="6.98087">
        <ele>1223.29</ele>
        <time>2021-01-26T12:58:49.000Z</time>
      </trkpt>
      <trkpt lat="47.99208" lon="6.98087">
        <ele>1226.29</ele>
        <time>2021-01-26T12:59:07.000Z</time>
      </trkpt>
      <trkpt lat="47.99219" lon="6.98083">
        <ele>1229.39</ele>
        <time>2021-01-26T12:59:27.000Z</time>
      </trkpt>
      <trkpt lat="47.9923" lon="6.98083">
        <ele>1232.12</ele>
        <time>2021-01-26T12:59:45.000Z</time>
      </trkpt>
      <trkpt lat="47.99241" lon="6.98083">
        <ele>1234.54</ele>
        <time>2021-01-26T13:00:02.000Z</time>
      </trkpt>
      <trkpt lat="47.99252" lon="6.98079">
        <ele>1236.74</ele>
        <time>2021-01-26T13:00:18.000Z</time>
      </trkpt>
      <trkpt lat="47.99264" lon="6.98077">
        <ele>1238.87</ele>
        <time>2021-01-26T13:00:33.000Z</time>
      </trkpt>
      <trkpt lat="47.99274" lon="6.98075">
        <ele>1241.27</ele>
        <time>2021-01-26T13:00:49.000Z</time>
      </trkpt>
      <trkpt lat="47.99285" lon="6.98074">
        <ele>1243.34</ele>
        <time>2021-01-26T13:01:05.000Z</time>
      </trkpt>
      <trkpt lat="47.99297" lon="6.98075">
        <ele>1245.07</ele>
        <time>2021-01-26T13:01:19.000Z</time>
      </trkpt>
      <trkpt lat="47.99308" lon="6.98076">
        <ele>1246.24</ele>
        <time>2021-01-26T13:01:35.000Z</time>
      </trkpt>
      <trkpt lat="47.9932" lon="6.98073">
        <ele>1247.57</ele>
        <time>2021-01-26T13:01:50.000Z</time>
      </trkpt>
      <trkpt lat="47.99332" lon="6.98072">
        <ele>1249.37</ele>
        <time>2021-01-26T13:02:05.000Z</time>
      </trkpt>
      <trkpt lat="47.99343" lon="6.98068">
        <ele>1251.22</ele>
        <time>2021-01-26T13:02:19.000Z</time>
      </trkpt>
      <trkpt lat="47.99354" lon="6.98064">
        <ele>1253.82</ele>
        <time>2021-01-26T13:02:37.000Z</time>
      </trkpt>
      <trkpt lat="47.99364" lon="6.98057">
        <ele>1256.07</ele>
        <time>2021-01-26T13:02:58.000Z</time>
      </trkpt>
      <trkpt lat="47.99375" lon="6.98051">
        <ele>1258.59</ele>
        <time>2021-01-26T13:03:16.000Z</time>
      </trkpt>
      <trkpt lat="47.99387" lon="6.98051">
        <ele>1261.17</ele>
        <time>2021-01-26T13:03:33.000Z</time>
      </trkpt>
      <trkpt lat="47.99397" lon="6.98054">
        <ele>1262</ele>
        <time>2021-01-26T13:04:28.000Z</time>
      </trkpt>
      <trkpt lat="47.99406" lon="6.98056">
        <ele>1261.48</ele>
        <time>2021-01-26T13:04:37.000Z</time>
      </trkpt>
      <trkpt lat="47.99417" lon="6.9806">
        <ele>1264.59</ele>
        <time>2021-01-26T13:15:06.000Z</time>
      </trkpt>
      <trkpt lat="47.99425" lon="6.98071">
        <ele>1262.49</ele>
        <time>2021-01-26T13:15:13.000Z</time>
      </trkpt>
      <trkpt lat="47.99435" lon="6.98078">
        <ele>1258.51</ele>
        <time>2021-01-26T13:15:18.000Z</time>
      </trkpt>
      <trkpt lat="47.99442" lon="6.98067">
        <ele>1256.03</ele>
        <time>2021-01-26T13:15:30.000Z</time>
      </trkpt>
      <trkpt lat="47.99451" lon="6.98061">
        <ele>1253.7</ele>
        <time>2021-01-26T13:15:35.000Z</time>
      </trkpt>
      <trkpt lat="47.99458" lon="6.98045">
        <ele>1251.31</ele>
        <time>2021-01-26T13:15:40.000Z</time>
      </trkpt>
      <trkpt lat="47.99466" lon="6.98035">
        <ele>1249.25</ele>
        <time>2021-01-26T13:15:45.000Z</time>
      </trkpt>
      <trkpt lat="47.99475" lon="6.98032">
        <ele>1248.73</ele>
        <time>2021-01-26T13:16:13.000Z</time>
      </trkpt>
      <trkpt lat="47.9948" lon="6.98018">
        <ele>1246.84</ele>
        <time>2021-01-26T13:16:18.000Z</time>
      </trkpt>
      <trkpt lat="47.99485" lon="6.98006">
        <ele>1245.88</ele>
        <time>2021-01-26T13:16:24.000Z</time>
      </trkpt>
      <trkpt lat="47.99492" lon="6.97993">
        <ele>1243.9</ele>
        <time>2021-01-26T13:16:29.000Z</time>
      </trkpt>
      <trkpt lat="47.99502" lon="6.98006">
        <ele>1240.42</ele>
        <time>2021-01-26T13:17:12.000Z</time>
      </trkpt>
      <trkpt lat="47.99508" lon="6.9802">
        <ele>1239.21</ele>
        <time>2021-01-26T13:17:17.000Z</time>
      </trkpt>
      <trkpt lat="47.99514" lon="6.98032">
        <ele>1238.55</ele>
        <time>2021-01-26T13:17:25.000Z</time>
      </trkpt>
      <trkpt lat="47.99517" lon="6.98044">
        <ele>1237.27</ele>
        <time>2021-01-26T13:17:36.000Z</time>
      </trkpt>
      <trkpt lat="47.99523" lon="6.98055">
        <ele>1237</ele>
        <time>2021-01-26T13:17:46.000Z</time>
      </trkpt>
      <trkpt lat="47.99527" lon="6.98067">
        <ele>1236.85</ele>
        <time>2021-01-26T13:17:56.000Z</time>
      </trkpt>
      <trkpt lat="47.99528" lon="6.98081">
        <ele>1236.81</ele>
        <time>2021-01-26T13:18:08.000Z</time>
      </trkpt>
      <trkpt lat="47.99532" lon="6.98095">
        <ele>1237.52</ele>
        <time>2021-01-26T13:18:16.000Z</time>
      </trkpt>
      <trkpt lat="47.99534" lon="6.98114">
        <ele>1238.07</ele>
        <time>2021-01-26T13:18:39.000Z</time>
      </trkpt>
      <trkpt lat="47.99534" lon="6.9813">
        <ele>1244.27</ele>
        <time>2021-01-26T13:19:36.000Z</time>
      </trkpt>
      <trkpt lat="47.9953" lon="6.98149">
        <ele>1241</ele>
        <time>2021-01-26T13:19:41.000Z</time>
      </trkpt>
      <trkpt lat="47.99523" lon="6.98168">
        <ele>1237.33</ele>
        <time>2021-01-26T13:19:46.000Z</time>
      </trkpt>
      <trkpt lat="47.99521" lon="6.98183">
        <ele>1234.15</ele>
        <time>2021-01-26T13:19:51.000Z</time>
      </trkpt>
      <trkpt lat="47.99523" lon="6.98201">
        <ele>1233.97</ele>
        <time>2021-01-26T13:20:48.000Z</time>
      </trkpt>
      <trkpt lat="47.9953" lon="6.98223">
        <ele>1230.32</ele>
        <time>2021-01-26T13:20:53.000Z</time>
      </trkpt>
      <trkpt lat="47.9954" lon="6.9823">
        <ele>1226.99</ele>
        <time>2021-01-26T13:21:01.000Z</time>
      </trkpt>
      <trkpt lat="47.99536" lon="6.98245">
        <ele>1224.47</ele>
        <time>2021-01-26T13:21:15.000Z</time>
      </trkpt>
      <trkpt lat="47.99523" lon="6.98258">
        <ele>1219.14</ele>
        <time>2021-01-26T13:21:20.000Z</time>
      </trkpt>
      <trkpt lat="47.99513" lon="6.9826">
        <ele>1214.65</ele>
        <time>2021-01-26T13:21:26.000Z</time>
      </trkpt>
      <trkpt lat="47.99506" lon="6.98269">
        <ele>1210.24</ele>
        <time>2021-01-26T13:21:33.000Z</time>
      </trkpt>
      <trkpt lat="47.99497" lon="6.98287">
        <ele>1204.53</ele>
        <time>2021-01-26T13:21:38.000Z</time>
      </trkpt>
      <trkpt lat="47.99491" lon="6.98307">
        <ele>1195.67</ele>
        <time>2021-01-26T13:21:43.000Z</time>
      </trkpt>
      <trkpt lat="47.99487" lon="6.98328">
        <ele>1186.19</ele>
        <time>2021-01-26T13:21:48.000Z</time>
      </trkpt>
      <trkpt lat="47.99486" lon="6.98355">
        <ele>1175.77</ele>
        <time>2021-01-26T13:21:53.000Z</time>
      </trkpt>
      <trkpt lat="47.99482" lon="6.9838">
        <ele>1165</ele>
        <time>2021-01-26T13:21:58.000Z</time>
      </trkpt>
      <trkpt lat="47.99482" lon="6.98401">
        <ele>1154.67</ele>
        <time>2021-01-26T13:22:03.000Z</time>
      </trkpt>
      <trkpt lat="47.99493" lon="6.98419">
        <ele>1149.51</ele>
        <time>2021-01-26T13:22:08.000Z</time>
      </trkpt>
      <trkpt lat="47.995" lon="6.98439">
        <ele>1141.75</ele>
        <time>2021-01-26T13:22:13.000Z</time>
      </trkpt>
      <trkpt lat="47.99516" lon="6.9847">
        <ele>1132.43</ele>
        <time>2021-01-26T13:22:18.000Z</time>
      </trkpt>
      <trkpt lat="47.99537" lon="6.98498">
        <ele>1123.79</ele>
        <time>2021-01-26T13:22:23.000Z</time>
      </trkpt>
      <trkpt lat="47.99546" lon="6.98506">
        <ele>1118.3</ele>
        <time>2021-01-26T13:22:28.000Z</time>
      </trkpt>
      <trkpt lat="47.99556" lon="6.98508">
        <ele>1120.22</ele>
        <time>2021-01-26T13:22:49.000Z</time>
      </trkpt>
      <trkpt lat="47.99567" lon="6.98512">
        <ele>1121.89</ele>
        <time>2021-01-26T13:23:04.000Z</time>
      </trkpt>
      <trkpt lat="47.99578" lon="6.98516">
        <ele>1123.22</ele>
        <time>2021-01-26T13:23:24.000Z</time>
      </trkpt>
      <trkpt lat="47.99588" lon="6.98519">
        <ele>1123.42</ele>
        <time>2021-01-26T13:23:40.000Z</time>
      </trkpt>
      <trkpt lat="47.99598" lon="6.98524">
        <ele>1123.37</ele>
        <time>2021-01-26T13:24:05.000Z</time>
      </trkpt>
      <trkpt lat="47.9961" lon="6.98527">
        <ele>1123.79</ele>
        <time>2021-01-26T13:24:26.000Z</time>
      </trkpt>
      <trkpt lat="47.99621" lon="6.9853">
        <ele>1123.39</ele>
        <time>2021-01-26T13:24:45.000Z</time>
      </trkpt>
      <trkpt lat="47.99631" lon="6.98532">
        <ele>1122.74</ele>
        <time>2021-01-26T13:25:20.000Z</time>
      </trkpt>
      <trkpt lat="47.99624" lon="6.98512">
        <ele>1122.8</ele>
        <time>2021-01-26T13:25:37.000Z</time>
      </trkpt>
      <trkpt lat="47.99625" lon="6.98532">
        <ele>1121.65</ele>
        <time>2021-01-26T13:25:42.000Z</time>
      </trkpt>
      <trkpt lat="47.99631" lon="6.98543">
        <ele>1120.65</ele>
        <time>2021-01-26T13:28:24.000Z</time>
      </trkpt>
      <trkpt lat="47.99629" lon="6.98558">
        <ele>1122.32</ele>
        <time>2021-01-26T13:28:33.000Z</time>
      </trkpt>
      <trkpt lat="47.99642" lon="6.98556">
        <ele>1132.12</ele>
        <time>2021-01-26T13:29:50.000Z</time>
      </trkpt>
      <trkpt lat="47.9963" lon="6.98563">
        <ele>1129.59</ele>
        <time>2021-01-26T13:35:18.000Z</time>
      </trkpt>
      <trkpt lat="47.99623" lon="6.98605">
        <ele>1121.34</ele>
        <time>2021-01-26T13:35:23.000Z</time>
      </trkpt>
      <trkpt lat="47.99609" lon="6.98647">
        <ele>1111.32</ele>
        <time>2021-01-26T13:35:28.000Z</time>
      </trkpt>
      <trkpt lat="47.99599" lon="6.98689">
        <ele>1098.38</ele>
        <time>2021-01-26T13:35:33.000Z</time>
      </trkpt>
      <trkpt lat="47.99599" lon="6.98733">
        <ele>1081.96</ele>
        <time>2021-01-26T13:35:38.000Z</time>
      </trkpt>
      <trkpt lat="47.99613" lon="6.98767">
        <ele>1070.52</ele>
        <time>2021-01-26T13:35:43.000Z</time>
      </trkpt>
      <trkpt lat="47.99607" lon="6.98808">
        <ele>1052.82</ele>
        <time>2021-01-26T13:35:48.000Z</time>
      </trkpt>
      <trkpt lat="47.99618" lon="6.98852">
        <ele>1032.04</ele>
        <time>2021-01-26T13:35:53.000Z</time>
      </trkpt>
      <trkpt lat="47.99652" lon="6.98887">
        <ele>1025</ele>
        <time>2021-01-26T13:35:58.000Z</time>
      </trkpt>
      <trkpt lat="47.99665" lon="6.98907">
        <ele>1018.61</ele>
        <time>2021-01-26T13:36:03.000Z</time>
      </trkpt>
      <trkpt lat="47.99671" lon="6.98922">
        <ele>1021.74</ele>
        <time>2021-01-26T13:37:07.000Z</time>
      </trkpt>
      <trkpt lat="47.99678" lon="6.98941">
        <ele>1020.96</ele>
        <time>2021-01-26T13:37:12.000Z</time>
      </trkpt>
      <trkpt lat="47.99687" lon="6.98955">
        <ele>1014.65</ele>
        <time>2021-01-26T13:37:17.000Z</time>
      </trkpt>
      <trkpt lat="47.99705" lon="6.98966">
        <ele>1005.41</ele>
        <time>2021-01-26T13:37:22.000Z</time>
      </trkpt>
      <trkpt lat="47.99727" lon="6.9899">
        <ele>996.12</ele>
        <time>2021-01-26T13:37:27.000Z</time>
      </trkpt>
      <trkpt lat="47.99742" lon="6.99006">
        <ele>988.3</ele>
        <time>2021-01-26T13:37:32.000Z</time>
      </trkpt>
      <trkpt lat="47.99754" lon="6.99035">
        <ele>981.58</ele>
        <time>2021-01-26T13:37:37.000Z</time>
      </trkpt>
      <trkpt lat="47.99763" lon="6.99056">
        <ele>972.9</ele>
        <time>2021-01-26T13:37:42.000Z</time>
      </trkpt>
      <trkpt lat="47.99769" lon="6.99075">
        <ele>966.79</ele>
        <time>2021-01-26T13:37:47.000Z</time>
      </trkpt>
      <trkpt lat="47.99773" lon="6.99092">
        <ele>969.73</ele>
        <time>2021-01-26T13:38:02.000Z</time>
      </trkpt>
      <trkpt lat="47.99783" lon="6.99114">
        <ele>966.48</ele>
        <time>2021-01-26T13:38:07.000Z</time>
      </trkpt>
      <trkpt lat="47.99799" lon="6.99145">
        <ele>961.21</ele>
        <time>2021-01-26T13:38:12.000Z</time>
      </trkpt>
      <trkpt lat="47.99803" lon="6.99161">
        <ele>960.41</ele>
        <time>2021-01-26T13:38:17.000Z</time>
      </trkpt>
      <trkpt lat="47.99812" lon="6.9917">
        <ele>963.86</ele>
        <time>2021-01-26T13:40:37.000Z</time>
      </trkpt>
      <trkpt lat="47.99808" lon="6.99157">
        <ele>960.16</ele>
        <time>2021-01-26T13:41:27.000Z</time>
      </trkpt>
      <trkpt lat="47.99799" lon="6.99146">
        <ele>960.2</ele>
        <time>2021-01-26T13:41:32.000Z</time>
      </trkpt>
      <trkpt lat="47.99795" lon="6.99158">
        <ele>961.93</ele>
        <time>2021-01-26T13:42:04.000Z</time>
      </trkpt>
      <trkpt lat="47.99785" lon="6.99159">
        <ele>960.46</ele>
        <time>2021-01-26T13:42:10.000Z</time>
      </trkpt>
      <trkpt lat="47.99774" lon="6.99164">
        <ele>957.61</ele>
        <time>2021-01-26T13:42:43.000Z</time>
      </trkpt>
      <trkpt lat="47.99766" lon="6.99184">
        <ele>955.99</ele>
        <time>2021-01-26T13:42:48.000Z</time>
      </trkpt>
      <trkpt lat="47.99752" lon="6.99203">
        <ele>953.29</ele>
        <time>2021-01-26T13:42:53.000Z</time>
      </trkpt>
      <trkpt lat="47.99743" lon="6.9922">
        <ele>948.56</ele>
        <time>2021-01-26T13:42:58.000Z</time>
      </trkpt>
      <trkpt lat="47.99738" lon="6.99234">
        <ele>945.34</ele>
        <time>2021-01-26T13:43:46.000Z</time>
      </trkpt>
      <trkpt lat="47.99739" lon="6.99253">
        <ele>942.48</ele>
        <time>2021-01-26T13:43:51.000Z</time>
      </trkpt>
      <trkpt lat="47.99737" lon="6.99283">
        <ele>937.28</ele>
        <time>2021-01-26T13:43:56.000Z</time>
      </trkpt>
      <trkpt lat="47.99736" lon="6.99303">
        <ele>929.75</ele>
        <time>2021-01-26T13:44:01.000Z</time>
      </trkpt>
      <trkpt lat="47.99731" lon="6.99324">
        <ele>919.19</ele>
        <time>2021-01-26T13:44:06.000Z</time>
      </trkpt>
      <trkpt lat="47.99722" lon="6.99331">
        <ele>904.4</ele>
        <time>2021-01-26T13:44:14.000Z</time>
      </trkpt>
      <trkpt lat="47.99721" lon="6.99346">
        <ele>891.41</ele>
        <time>2021-01-26T13:46:16.000Z</time>
      </trkpt>
      <trkpt lat="47.99718" lon="6.99365">
        <ele>889.27</ele>
        <time>2021-01-26T13:46:21.000Z</time>
      </trkpt>
      <trkpt lat="47.99719" lon="6.99393">
        <ele>885.96</ele>
        <time>2021-01-26T13:46:26.000Z</time>
      </trkpt>
      <trkpt lat="47.9973" lon="6.99414">
        <ele>881.34</ele>
        <time>2021-01-26T13:46:31.000Z</time>
      </trkpt>
      <trkpt lat="47.99723" lon="6.99427">
        <ele>873.98</ele>
        <time>2021-01-26T13:46:36.000Z</time>
      </trkpt>
      <trkpt lat="47.99719" lon="6.9944">
        <ele>864.41</ele>
        <time>2021-01-26T13:46:41.000Z</time>
      </trkpt>
      <trkpt lat="47.99727" lon="6.99458">
        <ele>855.28</ele>
        <time>2021-01-26T13:46:46.000Z</time>
      </trkpt>
      <trkpt lat="47.99729" lon="6.99473">
        <ele>848.01</ele>
        <time>2021-01-26T13:47:27.000Z</time>
      </trkpt>
      <trkpt lat="47.9973" lon="6.99495">
        <ele>847.08</ele>
        <time>2021-01-26T13:47:32.000Z</time>
      </trkpt>
      <trkpt lat="47.99724" lon="6.99506">
        <ele>845.93</ele>
        <time>2021-01-26T13:48:14.000Z</time>
      </trkpt>
      <trkpt lat="47.99706" lon="6.99534">
        <ele>844.29</ele>
        <time>2021-01-26T13:48:19.000Z</time>
      </trkpt>
      <trkpt lat="47.997" lon="6.99568">
        <ele>842.2</ele>
        <time>2021-01-26T13:48:24.000Z</time>
      </trkpt>
      <trkpt lat="47.99699" lon="6.99588">
        <ele>837.12</ele>
        <time>2021-01-26T13:48:29.000Z</time>
      </trkpt>
      <trkpt lat="47.99707" lon="6.996">
        <ele>830.06</ele>
        <time>2021-01-26T13:48:34.000Z</time>
      </trkpt>
      <trkpt lat="47.99709" lon="6.99616">
        <ele>825.45</ele>
        <time>2021-01-26T13:49:05.000Z</time>
      </trkpt>
      <trkpt lat="47.99698" lon="6.99636">
        <ele>824.25</ele>
        <time>2021-01-26T13:49:10.000Z</time>
      </trkpt>
      <trkpt lat="47.99677" lon="6.9963">
        <ele>822.23</ele>
        <time>2021-01-26T13:49:15.000Z</time>
      </trkpt>
      <trkpt lat="47.9966" lon="6.9963">
        <ele>818.28</ele>
        <time>2021-01-26T13:49:20.000Z</time>
      </trkpt>
      <trkpt lat="47.99642" lon="6.99619">
        <ele>813.24</ele>
        <time>2021-01-26T13:49:25.000Z</time>
      </trkpt>
      <trkpt lat="47.9964" lon="6.99632">
        <ele>808.09</ele>
        <time>2021-01-26T13:49:58.000Z</time>
      </trkpt>
      <trkpt lat="47.99654" lon="6.99657">
        <ele>807.44</ele>
        <time>2021-01-26T13:50:03.000Z</time>
      </trkpt>
      <trkpt lat="47.99666" lon="6.99687">
        <ele>805.8</ele>
        <time>2021-01-26T13:50:08.000Z</time>
      </trkpt>
      <trkpt lat="47.99675" lon="6.99724">
        <ele>802.72</ele>
        <time>2021-01-26T13:50:13.000Z</time>
      </trkpt>
      <trkpt lat="47.99687" lon="6.99755">
        <ele>798.79</ele>
        <time>2021-01-26T13:50:18.000Z</time>
      </trkpt>
      <trkpt lat="47.99703" lon="6.99765">
        <ele>793.26</ele>
        <time>2021-01-26T13:50:23.000Z</time>
      </trkpt>
      <trkpt lat="47.99719" lon="6.99776">
        <ele>788.93</ele>
        <time>2021-01-26T13:50:28.000Z</time>
      </trkpt>
      <trkpt lat="47.9973" lon="6.99797">
        <ele>784.14</ele>
        <time>2021-01-26T13:50:33.000Z</time>
      </trkpt>
      <trkpt lat="47.99736" lon="6.99816">
        <ele>779.68</ele>
        <time>2021-01-26T13:50:38.000Z</time>
      </trkpt>
      <trkpt lat="47.99744" lon="6.99837">
        <ele>773.55</ele>
        <time>2021-01-26T13:50:43.000Z</time>
      </trkpt>
      <trkpt lat="47.99754" lon="6.99856">
        <ele>767.17</ele>
        <time>2021-01-26T13:50:48.000Z</time>
      </trkpt>
      <trkpt lat="47.99766" lon="6.99882">
        <ele>762.62</ele>
        <time>2021-01-26T13:50:53.000Z</time>
      </trkpt>
      <trkpt lat="47.99782" lon="6.99916">
        <ele>759.09</ele>
        <time>2021-01-26T13:50:58.000Z</time>
      </trkpt>
      <trkpt lat="47.99795" lon="6.99954">
        <ele>755.23</ele>
        <time>2021-01-26T13:51:03.000Z</time>
      </trkpt>
      <trkpt lat="47.99808" lon="6.99987">
        <ele>752.24</ele>
        <time>2021-01-26T13:51:08.000Z</time>
      </trkpt>
      <trkpt lat="47.99822" lon="7.00004">
        <ele>750.27</ele>
        <time>2021-01-26T13:51:13.000Z</time>
      </trkpt>
      <trkpt lat="47.99838" lon="7.00016">
        <ele>750.33</ele>
        <time>2021-01-26T13:51:18.000Z</time>
      </trkpt>
      <trkpt lat="47.99857" lon="7.00021">
        <ele>747.39</ele>
        <time>2021-01-26T13:51:23.000Z</time>
      </trkpt>
      <trkpt lat="47.99873" lon="7.00015">
        <ele>744.23</ele>
        <time>2021-01-26T13:51:28.000Z</time>
      </trkpt>
      <trkpt lat="47.99884" lon="6.99998">
        <ele>741.59</ele>
        <time>2021-01-26T13:51:33.000Z</time>
      </trkpt>
      <trkpt lat="47.99897" lon="6.99975">
        <ele>737.45</ele>
        <time>2021-01-26T13:51:38.000Z</time>
      </trkpt>
      <trkpt lat="47.9991" lon="6.99953">
        <ele>734.99</ele>
        <time>2021-01-26T13:51:43.000Z</time>
      </trkpt>
      <trkpt lat="47.99916" lon="6.9993">
        <ele>733.44</ele>
        <time>2021-01-26T13:51:48.000Z</time>
      </trkpt>
      <trkpt lat="47.9993" lon="6.99904">
        <ele>731.42</ele>
        <time>2021-01-26T13:51:53.000Z</time>
      </trkpt>
      <trkpt lat="47.99938" lon="6.99878">
        <ele>729.39</ele>
        <time>2021-01-26T13:51:58.000Z</time>
      </trkpt>
      <trkpt lat="47.99949" lon="6.9985">
        <ele>726.81</ele>
        <time>2021-01-26T13:52:03.000Z</time>
      </trkpt>
      <trkpt lat="47.99961" lon="6.99822">
        <ele>724.63</ele>
        <time>2021-01-26T13:52:08.000Z</time>
      </trkpt>
      <trkpt lat="47.99968" lon="6.99791">
        <ele>723.84</ele>
        <time>2021-01-26T13:52:13.000Z</time>
      </trkpt>
      <trkpt lat="47.99972" lon="6.99764">
        <ele>723.3</ele>
        <time>2021-01-26T13:52:18.000Z</time>
      </trkpt>
      <trkpt lat="47.99983" lon="6.9974">
        <ele>720.48</ele>
        <time>2021-01-26T13:52:23.000Z</time>
      </trkpt>
      <trkpt lat="47.99999" lon="6.99717">
        <ele>720.69</ele>
        <time>2021-01-26T13:52:28.000Z</time>
      </trkpt>
      <trkpt lat="48.00016" lon="6.99691">
        <ele>721.12</ele>
        <time>2021-01-26T13:52:33.000Z</time>
      </trkpt>
      <trkpt lat="48.00035" lon="6.99665">
        <ele>721.08</ele>
        <time>2021-01-26T13:52:38.000Z</time>
      </trkpt>
      <trkpt lat="48.00043" lon="6.99655">
        <ele>720.06</ele>
        <time>2021-01-26T13:52:51.000Z</time>
      </trkpt>
      <trkpt lat="48.00052" lon="6.99644">
        <ele>720.02</ele>
        <time>2021-01-26T13:52:56.000Z</time>
      </trkpt>
      <trkpt lat="48.00064" lon="6.99636">
        <ele>718.96</ele>
        <time>2021-01-26T13:53:01.000Z</time>
      </trkpt>
      <trkpt lat="48.00079" lon="6.99632">
        <ele>717.63</ele>
        <time>2021-01-26T13:53:06.000Z</time>
      </trkpt>
      <trkpt lat="48.00096" lon="6.99629">
        <ele>715.42</ele>
        <time>2021-01-26T13:53:11.000Z</time>
      </trkpt>
      <trkpt lat="48.00116" lon="6.99625">
        <ele>713.13</ele>
        <time>2021-01-26T13:53:16.000Z</time>
      </trkpt>
      <trkpt lat="48.0013" lon="6.9962">
        <ele>709.7</ele>
        <time>2021-01-26T13:53:21.000Z</time>
      </trkpt>
      <trkpt lat="48.00146" lon="6.99617">
        <ele>706.47</ele>
        <time>2021-01-26T13:53:26.000Z</time>
      </trkpt>
      <trkpt lat="48.00167" lon="6.99612">
        <ele>702.13</ele>
        <time>2021-01-26T13:53:31.000Z</time>
      </trkpt>
      <trkpt lat="48.00186" lon="6.99607">
        <ele>698.43</ele>
        <time>2021-01-26T13:53:36.000Z</time>
      </trkpt>
      <trkpt lat="48.00208" lon="6.99605">
        <ele>694.43</ele>
        <time>2021-01-26T13:53:41.000Z</time>
      </trkpt>
      <trkpt lat="48.00228" lon="6.9961">
        <ele>691.51</ele>
        <time>2021-01-26T13:53:46.000Z</time>
      </trkpt>
      <trkpt lat="48.00246" lon="6.99622">
        <ele>686.04</ele>
        <time>2021-01-26T13:53:51.000Z</time>
      </trkpt>
      <trkpt lat="48.0026" lon="6.99644">
        <ele>682.34</ele>
        <time>2021-01-26T13:53:56.000Z</time>
      </trkpt>
      <trkpt lat="48.00264" lon="6.9967">
        <ele>676.66</ele>
        <time>2021-01-26T13:54:01.000Z</time>
      </trkpt>
      <trkpt lat="48.00252" lon="6.99686">
        <ele>672.67</ele>
        <time>2021-01-26T13:54:06.000Z</time>
      </trkpt>
      <trkpt lat="48.00233" lon="6.99696">
        <ele>668.32</ele>
        <time>2021-01-26T13:54:11.000Z</time>
      </trkpt>
      <trkpt lat="48.00214" lon="6.99711">
        <ele>664</ele>
        <time>2021-01-26T13:54:16.000Z</time>
      </trkpt>
      <trkpt lat="48.00195" lon="6.99735">
        <ele>661.56</ele>
        <time>2021-01-26T13:54:21.000Z</time>
      </trkpt>
      <trkpt lat="48.00178" lon="6.99754">
        <ele>658.99</ele>
        <time>2021-01-26T13:54:26.000Z</time>
      </trkpt>
      <trkpt lat="48.00164" lon="6.99768">
        <ele>655.88</ele>
        <time>2021-01-26T13:54:31.000Z</time>
      </trkpt>
      <trkpt lat="48.00148" lon="6.99787">
        <ele>653.94</ele>
        <time>2021-01-26T13:54:36.000Z</time>
      </trkpt>
      <trkpt lat="48.00135" lon="6.9981">
        <ele>651.88</ele>
        <time>2021-01-26T13:54:41.000Z</time>
      </trkpt>
      <trkpt lat="48.0012" lon="6.99833">
        <ele>650.12</ele>
        <time>2021-01-26T13:54:46.000Z</time>
      </trkpt>
      <trkpt lat="48.00114" lon="6.99864">
        <ele>649.71</ele>
        <time>2021-01-26T13:54:51.000Z</time>
      </trkpt>
      <trkpt lat="48.00111" lon="6.99902">
        <ele>650.12</ele>
        <time>2021-01-26T13:54:56.000Z</time>
      </trkpt>
      <trkpt lat="48.00111" lon="6.99928">
        <ele>650.77</ele>
        <time>2021-01-26T13:55:01.000Z</time>
      </trkpt>
      <trkpt lat="48.00108" lon="6.99952">
        <ele>650.34</ele>
        <time>2021-01-26T13:55:16.000Z</time>
      </trkpt>
      <trkpt lat="48.00102" lon="6.99984">
        <ele>651.38</ele>
        <time>2021-01-26T13:55:21.000Z</time>
      </trkpt>
      <trkpt lat="48.00092" lon="7.00011">
        <ele>653.98</ele>
        <time>2021-01-26T13:55:26.000Z</time>
      </trkpt>
      <trkpt lat="48.00084" lon="7.00042">
        <ele>654.55</ele>
        <time>2021-01-26T13:55:31.000Z</time>
      </trkpt>
      <trkpt lat="48.0008" lon="7.00078">
        <ele>653.52</ele>
        <time>2021-01-26T13:55:36.000Z</time>
      </trkpt>
      <trkpt lat="48.00082" lon="7.00119">
        <ele>652.37</ele>
        <time>2021-01-26T13:55:41.000Z</time>
      </trkpt>
      <trkpt lat="48.00091" lon="7.00156">
        <ele>650.13</ele>
        <time>2021-01-26T13:55:46.000Z</time>
      </trkpt>
      <trkpt lat="48.00114" lon="7.0018">
        <ele>649.43</ele>
        <time>2021-01-26T13:55:51.000Z</time>
      </trkpt>
      <trkpt lat="48.00137" lon="7.00201">
        <ele>646.14</ele>
        <time>2021-01-26T13:55:56.000Z</time>
      </trkpt>
      <trkpt lat="48.00144" lon="7.0021">
        <ele>643.24</ele>
        <time>2021-01-26T13:56:01.000Z</time>
      </trkpt>
      <trkpt lat="48.00145" lon="7.00226">
        <ele>642.63</ele>
        <time>2021-01-26T13:56:45.000Z</time>
      </trkpt>
      <trkpt lat="48.00143" lon="7.0024">
        <ele>641.93</ele>
        <time>2021-01-26T13:56:50.000Z</time>
      </trkpt>
      <trkpt lat="48.00148" lon="7.00258">
        <ele>640.68</ele>
        <time>2021-01-26T13:56:55.000Z</time>
      </trkpt>
      <trkpt lat="48.00152" lon="7.00289">
        <ele>639.37</ele>
        <time>2021-01-26T13:57:00.000Z</time>
      </trkpt>
      <trkpt lat="48.00154" lon="7.00323">
        <ele>637.2</ele>
        <time>2021-01-26T13:57:05.000Z</time>
      </trkpt>
      <trkpt lat="48.00158" lon="7.00355">
        <ele>633.91</ele>
        <time>2021-01-26T13:57:10.000Z</time>
      </trkpt>
      <trkpt lat="48.00166" lon="7.00385">
        <ele>630.54</ele>
        <time>2021-01-26T13:57:15.000Z</time>
      </trkpt>
      <trkpt lat="48.00176" lon="7.00411">
        <ele>625.92</ele>
        <time>2021-01-26T13:57:20.000Z</time>
      </trkpt>
      <trkpt lat="48.00184" lon="7.00444">
        <ele>621.56</ele>
        <time>2021-01-26T13:57:25.000Z</time>
      </trkpt>
      <trkpt lat="48.00193" lon="7.00474">
        <ele>617.32</ele>
        <time>2021-01-26T13:57:30.000Z</time>
      </trkpt>
      <trkpt lat="48.00199" lon="7.00497">
        <ele>612.98</ele>
        <time>2021-01-26T13:57:35.000Z</time>
      </trkpt>
      <trkpt lat="48.00204" lon="7.00523">
        <ele>608.68</ele>
        <time>2021-01-26T13:57:40.000Z</time>
      </trkpt>
      <trkpt lat="48.00207" lon="7.0056">
        <ele>605.42</ele>
        <time>2021-01-26T13:57:45.000Z</time>
      </trkpt>
      <trkpt lat="48.00205" lon="7.00604">
        <ele>603.35</ele>
        <time>2021-01-26T13:57:50.000Z</time>
      </trkpt>
      <trkpt lat="48.002" lon="7.00646">
        <ele>600.42</ele>
        <time>2021-01-26T13:57:55.000Z</time>
      </trkpt>
      <trkpt lat="48.00199" lon="7.0068">
        <ele>596.79</ele>
        <time>2021-01-26T13:58:00.000Z</time>
      </trkpt>
      <trkpt lat="48.00201" lon="7.00705">
        <ele>593.96</ele>
        <time>2021-01-26T13:58:05.000Z</time>
      </trkpt>
      <trkpt lat="48.00202" lon="7.00736">
        <ele>590.77</ele>
        <time>2021-01-26T13:58:10.000Z</time>
      </trkpt>
      <trkpt lat="48.00203" lon="7.00767">
        <ele>588.05</ele>
        <time>2021-01-26T13:58:15.000Z</time>
      </trkpt>
      <trkpt lat="48.00204" lon="7.00795">
        <ele>586.43</ele>
        <time>2021-01-26T13:58:20.000Z</time>
      </trkpt>
      <trkpt lat="48.00201" lon="7.00822">
        <ele>586.74</ele>
        <time>2021-01-26T13:58:25.000Z</time>
      </trkpt>
      <trkpt lat="48.00205" lon="7.00844">
        <ele>585.08</ele>
        <time>2021-01-26T13:58:30.000Z</time>
      </trkpt>
      <trkpt lat="48.00208" lon="7.0086">
        <ele>580.79</ele>
        <time>2021-01-26T13:58:35.000Z</time>
      </trkpt>
      <trkpt lat="48.00205" lon="7.00878">
        <ele>574.52</ele>
        <time>2021-01-26T13:58:40.000Z</time>
      </trkpt>
      <trkpt lat="48.00206" lon="7.00892">
        <ele>568.96</ele>
        <time>2021-01-26T13:58:45.000Z</time>
      </trkpt>
      <trkpt lat="48.00212" lon="7.00906">
        <ele>565.56</ele>
        <time>2021-01-26T13:59:01.000Z</time>
      </trkpt>
      <trkpt lat="48.00216" lon="7.00924">
        <ele>564.38</ele>
        <time>2021-01-26T13:59:30.000Z</time>
      </trkpt>
      <trkpt lat="48.00222" lon="7.00936">
        <ele>564.16</ele>
        <time>2021-01-26T13:59:36.000Z</time>
      </trkpt>
      <trkpt lat="48.00223" lon="7.0096">
        <ele>564.08</ele>
        <time>2021-01-26T13:59:41.000Z</time>
      </trkpt>
      <trkpt lat="48.00224" lon="7.00981">
        <ele>564.23</ele>
        <time>2021-01-26T13:59:46.000Z</time>
      </trkpt>
      <trkpt lat="48.00225" lon="7.01001">
        <ele>563.98</ele>
        <time>2021-01-26T13:59:51.000Z</time>
      </trkpt>
      <trkpt lat="48.00228" lon="7.01026">
        <ele>563.13</ele>
        <time>2021-01-26T13:59:56.000Z</time>
      </trkpt>
      <trkpt lat="48.00233" lon="7.01054">
        <ele>562.31</ele>
        <time>2021-01-26T14:00:01.000Z</time>
      </trkpt>
      <trkpt lat="48.00237" lon="7.0108">
        <ele>561.34</ele>
        <time>2021-01-26T14:00:06.000Z</time>
      </trkpt>
      <trkpt lat="48.00241" lon="7.011">
        <ele>560.23</ele>
        <time>2021-01-26T14:00:11.000Z</time>
      </trkpt>
      <trkpt lat="48.00252" lon="7.01118">
        <ele>558.12</ele>
        <time>2021-01-26T14:00:16.000Z</time>
      </trkpt>
      <trkpt lat="48.00264" lon="7.01136">
        <ele>557.96</ele>
        <time>2021-01-26T14:00:21.000Z</time>
      </trkpt>
      <trkpt lat="48.00278" lon="7.01157">
        <ele>556.72</ele>
        <time>2021-01-26T14:00:26.000Z</time>
      </trkpt>
      <trkpt lat="48.00288" lon="7.01189">
        <ele>556.7</ele>
        <time>2021-01-26T14:00:31.000Z</time>
      </trkpt>
      <trkpt lat="48.00294" lon="7.01219">
        <ele>555.95</ele>
        <time>2021-01-26T14:00:36.000Z</time>
      </trkpt>
      <trkpt lat="48.00314" lon="7.01237">
        <ele>555.73</ele>
        <time>2021-01-26T14:00:41.000Z</time>
      </trkpt>
      <trkpt lat="48.00328" lon="7.01252">
        <ele>555.86</ele>
        <time>2021-01-26T14:00:46.000Z</time>
      </trkpt>
      <trkpt lat="48.00329" lon="7.0127">
        <ele>557.1</ele>
        <time>2021-01-26T14:00:51.000Z</time>
      </trkpt>
      <trkpt lat="48.00332" lon="7.01284">
        <ele>557.24</ele>
        <time>2021-01-26T14:00:56.000Z</time>
      </trkpt>
      <trkpt lat="48.00337" lon="7.013">
        <ele>556.87</ele>
        <time>2021-01-26T14:01:01.000Z</time>
      </trkpt>
      <trkpt lat="48.00339" lon="7.01317">
        <ele>556.7</ele>
        <time>2021-01-26T14:01:06.000Z</time>
      </trkpt>
      <trkpt lat="48.00343" lon="7.01337">
        <ele>555.64</ele>
        <time>2021-01-26T14:01:11.000Z</time>
      </trkpt>
      <trkpt lat="48.00345" lon="7.01356">
        <ele>552.74</ele>
        <time>2021-01-26T14:01:16.000Z</time>
      </trkpt>
      <trkpt lat="48.00354" lon="7.01368">
        <ele>546.56</ele>
        <time>2021-01-26T14:01:21.000Z</time>
      </trkpt>
      <trkpt lat="48.00355" lon="7.01383">
        <ele>538.21</ele>
        <time>2021-01-26T14:01:26.000Z</time>
      </trkpt>
      <trkpt lat="48.00368" lon="7.01421">
        <ele>531.12</ele>
        <time>2021-01-26T14:01:31.000Z</time>
      </trkpt>
      <trkpt lat="48.00371" lon="7.01443">
        <ele>523.66</ele>
        <time>2021-01-26T14:01:36.000Z</time>
      </trkpt>
      <trkpt lat="48.00376" lon="7.01465">
        <ele>514.6</ele>
        <time>2021-01-26T14:01:41.000Z</time>
      </trkpt>
      <trkpt lat="48.00393" lon="7.01496">
        <ele>508.28</ele>
        <time>2021-01-26T14:01:46.000Z</time>
      </trkpt>
      <trkpt lat="48.00422" lon="7.01537">
        <ele>509.76</ele>
        <time>2021-01-26T14:01:51.000Z</time>
      </trkpt>
      <trkpt lat="48.00437" lon="7.0157">
        <ele>512.62</ele>
        <time>2021-01-26T14:01:56.000Z</time>
      </trkpt>
      <trkpt lat="48.0045" lon="7.0158">
        <ele>518.14</ele>
        <time>2021-01-26T14:02:01.000Z</time>
      </trkpt>
      <trkpt lat="48.00466" lon="7.01592">
        <ele>522.29</ele>
        <time>2021-01-26T14:02:06.000Z</time>
      </trkpt>
      <trkpt lat="48.00475" lon="7.01609">
        <ele>525.42</ele>
        <time>2021-01-26T14:02:11.000Z</time>
      </trkpt>
      <trkpt lat="48.00483" lon="7.01627">
        <ele>528.17</ele>
        <time>2021-01-26T14:02:16.000Z</time>
      </trkpt>
      <trkpt lat="48.00486" lon="7.01646">
        <ele>530.3</ele>
        <time>2021-01-26T14:02:21.000Z</time>
      </trkpt>
      <trkpt lat="48.00487" lon="7.01665">
        <ele>533.15</ele>
        <time>2021-01-26T14:02:26.000Z</time>
      </trkpt>
      <trkpt lat="48.00486" lon="7.01665">
        <ele>533.96</ele>
        <time>2021-01-26T14:03:23.000Z</time>
      </trkpt>
    </trkseg>
  </trk>
</gpx>